| time (UTC) | temp F | wind direction | speed MPH | gust MPH | rain 1hr in | rain 24hr in | rain mn in | humidity % | barometer mb |
| 20260906223803 | 72 | 158 | 1.0 | 4.0 | 0.00 | 0.50 | 0.50 | 70 | 1010.4 |
| 20260906223603 | 72 | 172 | 1.0 | 4.0 | 0.00 | 0.50 | 0.50 | 72 | 1010.5 |
| 20260906223403 | 72 | 173 | 2.0 | 5.0 | 0.00 | 0.50 | 0.50 | 73 | 1010.4 |
| 20260906223203 | 72 | 174 | 2.0 | 5.0 | 0.00 | 0.50 | 0.50 | 75 | 1010.5 |
| 20260906223003 | 72 | 181 | 2.0 | 5.0 | 0.00 | 0.50 | 0.50 | 76 | 1010.5 |
| 20260906222803 | 72 | 181 | 2.0 | 5.0 | 0.00 | 0.50 | 0.50 | 71 | 1010.5 |
| 20260906222603 | 72 | 173 | 1.0 | 5.0 | 0.00 | 0.50 | 0.50 | 71 | 1010.5 |
| 20260906222403 | 72 | 177 | 1.0 | 4.0 | 0.00 | 0.50 | 0.50 | 72 | 1010.5 |
| 20260906222203 | 72 | 198 | 0.0 | 2.0 | 0.00 | 0.50 | 0.50 | 73 | 1010.5 |
| 20260906222004 | 72 | 200 | 0.0 | 2.0 | 0.00 | 0.50 | 0.50 | 75 | 1010.6 |
| 20260906221803 | 72 | 200 | 0.0 | 2.0 | 0.00 | 0.50 | 0.50 | 76 | 1010.6 |
| 20260906221603 | 72 | 200 | 0.0 | 2.0 | 0.00 | 0.50 | 0.50 | 75 | 1010.7 |
| 20260906221404 | 72 | 200 | 0.0 | 2.0 | 0.00 | 0.50 | 0.50 | 74 | 1010.7 |
| 20260906221203 | 72 | 124 | 0.0 | 1.0 | 0.00 | 0.50 | 0.50 | 75 | 1010.7 |
| 20260906221003 | 72 | 124 | 0.0 | 1.0 | 0.00 | 0.50 | 0.50 | 76 | 1010.7 |
| 20260906220803 | 72 | 124 | 0.0 | 1.0 | 0.00 | 0.50 | 0.50 | 73 | 1010.7 |
| 20260906220603 | 71 | 124 | 0.0 | 1.0 | 0.00 | 0.50 | 0.50 | 72 | 1010.7 |
| 20260906220403 | 71 | 0 | 0.0 | 0.0 | 0.00 | 0.50 | 0.50 | 76 | 1010.7 |
| 20260906220224 | 71 | 0 | 0.0 | 0.0 | 0.00 | 0.50 | 0.50 | 75 | 1010.8 |
| 20260906220003 | 71 | 84 | 0.0 | 1.0 | 0.00 | 0.50 | 0.50 | 74 | 1010.8 |
| 20260906215803 | 71 | 84 | 0.0 | 1.0 | 0.00 | 0.50 | 0.50 | 73 | 1010.8 |
| 20260906215603 | 71 | 84 | 0.0 | 1.0 | 0.00 | 0.50 | 0.50 | 75 | 1010.8 |
| 20260906215403 | 71 | 84 | 0.0 | 1.0 | 0.00 | 0.50 | 0.50 | 76 | 1010.8 |
| 20260906215203 | 71 | 0 | 0.0 | 0.0 | 0.00 | 0.50 | 0.50 | 76 | 1010.8 |
| 20260906215003 | 70 | 0 | 0.0 | 0.0 | 0.00 | 0.50 | 0.50 | 77 | 1010.9 |
| 20260906214803 | 70 | 113 | 0.0 | 3.0 | 0.00 | 0.50 | 0.50 | 76 | 1010.9 |
| 20260906214603 | 70 | 113 | 0.0 | 3.0 | 0.00 | 0.50 | 0.50 | 79 | 1010.9 |
| 20260906214403 | 70 | 113 | 0.0 | 3.0 | 0.00 | 0.50 | 0.50 | 82 | 1011.0 |
| 20260906214224 | 70 | 109 | 0.0 | 3.0 | 0.00 | 0.50 | 0.50 | 81 | 1011.0 |
| 20260906214003 | 70 | 109 | 0.0 | 3.0 | 0.00 | 0.50 | 0.50 | 82 | 1011.1 |
| 20260906213803 | 70 | 102 | 0.0 | 2.0 | 0.00 | 0.50 | 0.50 | 84 | 1011.1 |
| 20260906213603 | 69 | 102 | 0.0 | 2.0 | 0.00 | 0.50 | 0.50 | 86 | 1011.2 |
| 20260906213424 | 69 | 102 | 0.0 | 2.0 | 0.00 | 0.50 | 0.50 | 86 | 1011.3 |
| 20260906213203 | 69 | 0 | 0.0 | 0.0 | 0.00 | 0.50 | 0.50 | 87 | 1011.5 |
| 20260906213003 | 69 | 0 | 0.0 | 0.0 | 0.00 | 0.50 | 0.50 | 87 | 1011.5 |
| 20260906212803 | 69 | 0 | 0.0 | 0.0 | 0.00 | 0.50 | 0.50 | 88 | 1011.5 |
| 20260906212603 | 69 | 180 | 0.0 | 2.0 | 0.00 | 0.50 | 0.50 | 88 | 1011.6 |
| 20260906212403 | 69 | 180 | 0.0 | 2.0 | 0.00 | 0.50 | 0.50 | 87 | 1011.6 |
| 20260906212203 | 69 | 234 | 0.0 | 2.0 | 0.00 | 0.50 | 0.50 | 87 | 1011.7 |
| 20260906212024 | 69 | 234 | 0.0 | 2.0 | 0.00 | 0.50 | 0.50 | 87 | 1011.7 |
| 20260906211824 | 69 | 234 | 0.0 | 2.0 | 0.00 | 0.50 | 0.50 | 88 | 1011.6 |
| 20260906211624 | 69 | 247 | 0.0 | 2.0 | 0.00 | 0.50 | 0.50 | 88 | 1011.7 |
| 20260906211403 | 69 | 231 | 0.0 | 3.0 | 0.00 | 0.50 | 0.50 | 87 | 1011.6 |
| 20260906211203 | 69 | 222 | 0.0 | 3.0 | 0.00 | 0.50 | 0.50 | 87 | 1011.6 |
| 20260906211003 | 69 | 222 | 0.0 | 3.0 | 0.00 | 0.50 | 0.50 | 85 | 1011.5 |
| 20260906210803 | 69 | 225 | 0.0 | 3.0 | 0.00 | 0.50 | 0.50 | 84 | 1011.5 |
| 20260906210604 | 69 | 225 | 0.0 | 3.0 | 0.01 | 0.50 | 0.50 | 83 | 1011.6 |
| 20260906210404 | 69 | 326 | 0.0 | 1.0 | 0.01 | 0.50 | 0.50 | 83 | 1011.5 |
| 20260906210203 | 69 | 274 | 0.0 | 1.0 | 0.01 | 0.50 | 0.50 | 81 | 1011.5 |
| 20260906210025 | 69 | 274 | 0.0 | 1.0 | 0.02 | 0.50 | 0.50 | 77 | 1011.4 |
| 20260906205803 | 69 | 220 | 0.0 | 1.0 | 0.02 | 0.50 | 0.50 | 76 | 1011.3 |
| 20260906205624 | 68 | 220 | 0.0 | 1.0 | 0.02 | 0.50 | 0.50 | 79 | 1011.4 |
| 20260906205403 | 68 | 220 | 0.0 | 1.0 | 0.02 | 0.50 | 0.50 | 82 | 1011.4 |
| 20260906205203 | 68 | 0 | 0.0 | 0.0 | 0.02 | 0.50 | 0.50 | 83 | 1011.4 |
| 20260906205003 | 67 | 0 | 0.0 | 0.0 | 0.02 | 0.50 | 0.50 | 84 | 1011.4 |
| 20260906204824 | 67 | 0 | 0.0 | 0.0 | 0.03 | 0.50 | 0.50 | 86 | 1011.3 |
| 20260906204603 | 67 | 0 | 0.0 | 0.0 | 0.04 | 0.50 | 0.50 | 87 | 1011.4 |
| 20260906204403 | 67 | 80 | 0.0 | 5.0 | 0.04 | 0.50 | 0.50 | 87 | 1011.3 |
| 20260906204203 | 67 | 76 | 0.0 | 5.0 | 0.05 | 0.50 | 0.50 | 87 | 1011.3 |
| 20260906204003 | 67 | 76 | 0.0 | 5.0 | 0.06 | 0.50 | 0.50 | 87 | 1011.3 |
| 20260906203803 | 67 | 76 | 0.0 | 5.0 | 0.06 | 0.50 | 0.50 | 87 | 1011.3 |
| 20260906203603 | 67 | 76 | 0.0 | 5.0 | 0.06 | 0.50 | 0.50 | 88 | 1011.3 |
| 20260906203403 | 67 | 66 | 0.0 | 3.0 | 0.06 | 0.50 | 0.50 | 90 | 1011.3 |
| 20260906203203 | 67 | 0 | 0.0 | 0.0 | 0.07 | 0.50 | 0.50 | 91 | 1011.4 |
| 20260906203003 | 67 | 0 | 0.0 | 0.0 | 0.08 | 0.50 | 0.50 | 91 | 1011.4 |
| 20260906202803 | 67 | 0 | 0.0 | 0.0 | 0.09 | 0.50 | 0.50 | 92 | 1011.6 |
| 20260906202603 | 66 | 0 | 0.0 | 0.0 | 0.09 | 0.50 | 0.50 | 91 | 1011.7 |
| 20260906202403 | 66 | 119 | 0.0 | 2.0 | 0.10 | 0.50 | 0.50 | 91 | 1011.8 |
| 20260906202203 | 66 | 108 | 0.0 | 2.0 | 0.10 | 0.50 | 0.50 | 92 | 1011.9 |
| 20260906202003 | 66 | 90 | 0.0 | 3.0 | 0.11 | 0.50 | 0.50 | 91 | 1011.9 |
| 20260906201804 | 66 | 90 | 0.0 | 3.0 | 0.11 | 0.50 | 0.50 | 92 | 1011.9 |
| 20260906201624 | 66 | 115 | 0.0 | 3.0 | 0.12 | 0.50 | 0.50 | 92 | 1011.9 |
| 20260906201403 | 66 | 129 | 1.0 | 3.0 | 0.12 | 0.50 | 0.50 | 92 | 1012.0 |
| 20260906201203 | 66 | 135 | 1.0 | 3.0 | 0.13 | 0.50 | 0.50 | 92 | 1012.0 |
| 20260906201003 | 66 | 141 | 1.0 | 3.0 | 0.13 | 0.50 | 0.50 | 93 | 1012.1 |
| 20260906200804 | 66 | 142 | 2.0 | 4.0 | 0.13 | 0.50 | 0.50 | 93 | 1012.2 |
| 20260906200603 | 66 | 138 | 2.0 | 4.0 | 0.13 | 0.50 | 0.50 | 93 | 1012.2 |
| 20260906200403 | 66 | 126 | 1.0 | 4.0 | 0.13 | 0.50 | 0.50 | 94 | 1012.2 |
| 20260906200224 | 66 | 108 | 2.0 | 5.0 | 0.13 | 0.50 | 0.50 | 94 | 1012.3 |
| 20260906200024 | 66 | 99 | 2.0 | 5.0 | 0.13 | 0.49 | 0.49 | 94 | 1012.2 |
| 20260906195824 | 66 | 83 | 1.0 | 5.0 | 0.13 | 0.49 | 0.49 | 95 | 1012.2 |
| 20260906195603 | 67 | 80 | 1.0 | 5.0 | 0.14 | 0.49 | 0.49 | 95 | 1012.1 |
| 20260906195403 | 67 | 78 | 1.0 | 5.0 | 0.15 | 0.49 | 0.49 | 95 | 1012.1 |
| 20260906195203 | 67 | 82 | 1.0 | 4.0 | 0.15 | 0.49 | 0.49 | 95 | 1012.1 |
| 20260906195003 | 67 | 82 | 0.0 | 4.0 | 0.15 | 0.48 | 0.48 | 95 | 1012.2 |
| 20260906194803 | 67 | 76 | 0.0 | 2.0 | 0.15 | 0.47 | 0.47 | 95 | 1012.4 |
| 20260906194603 | 67 | 84 | 0.0 | 2.0 | 0.15 | 0.46 | 0.46 | 95 | 1012.5 |
| 20260906194403 | 67 | 84 | 0.0 | 2.0 | 0.16 | 0.46 | 0.46 | 95 | 1012.8 |
| 20260906194203 | 67 | 84 | 0.0 | 2.0 | 0.16 | 0.46 | 0.46 | 95 | 1012.8 |
| 20260906194003 | 67 | 0 | 0.0 | 0.0 | 0.16 | 0.45 | 0.45 | 94 | 1012.9 |
| 20260906193803 | 67 | 0 | 0.0 | 0.0 | 0.17 | 0.45 | 0.45 | 95 | 1012.9 |
| 20260906193603 | 67 | 0 | 0.0 | 0.0 | 0.17 | 0.44 | 0.44 | 95 | 1013.1 |
| 20260906193403 | 67 | 0 | 0.0 | 0.0 | 0.18 | 0.44 | 0.44 | 94 | 1013.1 |
| 20260906193224 | 67 | 0 | 0.0 | 0.0 | 0.18 | 0.43 | 0.43 | 94 | 1013.2 |
| 20260906193003 | 67 | 0 | 0.0 | 0.0 | 0.17 | 0.43 | 0.43 | 94 | 1013.3 |
| 20260906192803 | 67 | 0 | 0.0 | 0.0 | 0.17 | 0.42 | 0.42 | 94 | 1013.4 |
| 20260906192603 | 67 | 0 | 0.0 | 0.0 | 0.17 | 0.41 | 0.41 | 94 | 1013.6 |
| 20260906192403 | 67 | 0 | 0.0 | 0.0 | 0.17 | 0.40 | 0.40 | 94 | 1013.4 |
| 20260906192203 | 67 | 0 | 0.0 | 0.0 | 0.18 | 0.40 | 0.40 | 94 | 1013.3 |
| 20260906192003 | 67 | 0 | 0.0 | 0.0 | 0.19 | 0.39 | 0.39 | 94 | 1013.3 |
| 20260906191803 | 67 | 0 | 0.0 | 0.0 | 0.20 | 0.39 | 0.39 | 94 | 1013.3 |
| 20260906191624 | 67 | 0 | 0.0 | 0.0 | 0.20 | 0.39 | 0.39 | 94 | 1013.2 |
| 20260906191403 | 67 | 0 | 0.0 | 0.0 | 0.21 | 0.39 | 0.39 | 94 | 1013.0 |
| 20260906191203 | 67 | 0 | 0.0 | 0.0 | 0.21 | 0.38 | 0.38 | 94 | 1013.0 |
| 20260906191003 | 67 | 0 | 0.0 | 0.0 | 0.22 | 0.38 | 0.38 | 94 | 1013.0 |
| 20260906190803 | 67 | 0 | 0.0 | 0.0 | 0.21 | 0.37 | 0.37 | 94 | 1012.9 |
| 20260906190603 | 67 | 0 | 0.0 | 0.0 | 0.22 | 0.37 | 0.37 | 94 | 1012.9 |
| 20260906190403 | 67 | 0 | 0.0 | 0.0 | 0.22 | 0.36 | 0.36 | 94 | 1013.0 |
| 20260906190224 | 67 | 0 | 0.0 | 0.0 | 0.23 | 0.36 | 0.36 | 94 | 1013.0 |
| 20260906190025 | 67 | 0 | 0.0 | 0.0 | 0.22 | 0.35 | 0.36 | 94 | 1013.0 |
| 20260906185803 | 67 | 0 | 0.0 | 0.0 | 0.23 | 0.35 | 0.35 | 94 | 1013.0 |
| 20260906185603 | 67 | 0 | 0.0 | 0.0 | 0.22 | 0.35 | 0.35 | 94 | 1013.1 |
| 20260906185403 | 67 | 0 | 0.0 | 0.0 | 0.22 | 0.34 | 0.34 | 94 | 1013.2 |
| 20260906185203 | 67 | 0 | 0.0 | 0.0 | 0.22 | 0.34 | 0.34 | 94 | 1013.1 |
| 20260906185003 | 67 | 0 | 0.0 | 0.0 | 0.22 | 0.33 | 0.33 | 93 | 1013.1 |
| 20260906184803 | 67 | 0 | 0.0 | 0.0 | 0.22 | 0.32 | 0.32 | 93 | 1013.1 |
| 20260906184603 | 67 | 0 | 0.0 | 0.0 | 0.22 | 0.31 | 0.31 | 93 | 1013.0 |
| 20260906184403 | 67 | 0 | 0.0 | 0.0 | 0.21 | 0.31 | 0.31 | 93 | 1013.0 |
| 20260906184204 | 67 | 0 | 0.0 | 0.0 | 0.21 | 0.30 | 0.30 | 93 | 1013.1 |
| 20260906184003 | 67 | 89 | 0.0 | 1.0 | 0.20 | 0.29 | 0.29 | 93 | 1013.0 |
| 20260906183803 | 67 | 89 | 0.0 | 1.0 | 0.20 | 0.28 | 0.28 | 93 | 1013.0 |
| 20260906183603 | 67 | 89 | 0.0 | 1.0 | 0.19 | 0.27 | 0.27 | 93 | 1013.0 |
| 20260906183404 | 67 | 89 | 0.0 | 1.0 | 0.18 | 0.26 | 0.26 | 92 | 1013.0 |
| 20260906183203 | 67 | 89 | 0.0 | 1.0 | 0.17 | 0.25 | 0.25 | 92 | 1013.0 |
| 20260906183003 | 67 | 0 | 0.0 | 0.0 | 0.17 | 0.25 | 0.25 | 93 | 1013.1 |
| 20260906182824 | 67 | 0 | 0.0 | 0.0 | 0.17 | 0.24 | 0.24 | 93 | 1013.1 |
| 20260906182603 | 68 | 0 | 0.0 | 0.0 | 0.17 | 0.24 | 0.24 | 93 | 1013.1 |
| 20260906182403 | 68 | 0 | 0.0 | 0.0 | 0.16 | 0.23 | 0.23 | 93 | 1013.1 |
| 20260906182203 | 68 | 0 | 0.0 | 0.0 | 0.15 | 0.22 | 0.22 | 93 | 1013.2 |
| 20260906182003 | 68 | 0 | 0.0 | 0.0 | 0.13 | 0.20 | 0.20 | 93 | 1013.3 |
| 20260906181803 | 67 | 0 | 0.0 | 0.0 | 0.13 | 0.20 | 0.20 | 92 | 1013.3 |
| 20260906181603 | 67 | 0 | 0.0 | 0.0 | 0.12 | 0.19 | 0.19 | 92 | 1013.3 |
| 20260906181403 | 67 | 0 | 0.0 | 0.0 | 0.10 | 0.17 | 0.17 | 92 | 1013.3 |
| 20260906181203 | 67 | 0 | 0.0 | 0.0 | 0.09 | 0.17 | 0.17 | 92 | 1013.4 |
| 20260906181004 | 67 | 0 | 0.0 | 0.0 | 0.09 | 0.16 | 0.16 | 92 | 1013.3 |
| 20260906180824 | 67 | 0 | 0.0 | 0.0 | 0.09 | 0.16 | 0.16 | 92 | 1013.1 |
| 20260906180603 | 67 | 0 | 0.0 | 0.0 | 0.08 | 0.15 | 0.15 | 91 | 1012.9 |
| 20260906180403 | 67 | 0 | 0.0 | 0.0 | 0.07 | 0.14 | 0.14 | 91 | 1013.0 |
| 20260906180203 | 67 | 0 | 0.0 | 0.0 | 0.06 | 0.13 | 0.13 | 91 | 1013.0 |
| 20260906180003 | 67 | 0 | 0.0 | 0.0 | 0.06 | 0.13 | 0.13 | 91 | 1013.0 |
| 20260906175803 | 67 | 0 | 0.0 | 0.0 | 0.06 | 0.13 | 0.13 | 90 | 1012.9 |
| 20260906175624 | 67 | 0 | 0.0 | 0.0 | 0.06 | 0.13 | 0.13 | 90 | 1012.8 |
| 20260906175403 | 67 | 0 | 0.0 | 0.0 | 0.06 | 0.12 | 0.12 | 90 | 1012.9 |
| 20260906175203 | 67 | 0 | 0.0 | 0.0 | 0.06 | 0.12 | 0.12 | 90 | 1012.8 |
| 20260906175003 | 67 | 0 | 0.0 | 0.0 | 0.05 | 0.11 | 0.11 | 90 | 1012.7 |
| 20260906174803 | 67 | 0 | 0.0 | 0.0 | 0.04 | 0.10 | 0.10 | 90 | 1012.6 |
| 20260906174603 | 67 | 0 | 0.0 | 0.0 | 0.03 | 0.09 | 0.09 | 90 | 1012.6 |
| 20260906174403 | 67 | 0 | 0.0 | 0.0 | 0.03 | 0.09 | 0.09 | 90 | 1012.6 |
| 20260906174203 | 67 | 0 | 0.0 | 0.0 | 0.02 | 0.09 | 0.09 | 90 | 1012.7 |
| 20260906174003 | 67 | 0 | 0.0 | 0.0 | 0.02 | 0.09 | 0.09 | 90 | 1012.6 |
| 20260906173803 | 67 | 0 | 0.0 | 0.0 | 0.02 | 0.08 | 0.08 | 90 | 1012.6 |
| 20260906173603 | 67 | 0 | 0.0 | 0.0 | 0.02 | 0.08 | 0.08 | 90 | 1012.6 |
| 20260906173403 | 67 | 0 | 0.0 | 0.0 | 0.02 | 0.08 | 0.08 | 89 | 1012.7 |
| 20260906173203 | 67 | 0 | 0.0 | 0.0 | 0.02 | 0.08 | 0.08 | 89 | 1012.7 |
| 20260906173003 | 67 | 0 | 0.0 | 0.0 | 0.02 | 0.08 | 0.08 | 88 | 1012.6 |
| 20260906172824 | 67 | 0 | 0.0 | 0.0 | 0.02 | 0.08 | 0.08 | 89 | 1012.5 |
| 20260906172624 | 68 | 0 | 0.0 | 0.0 | 0.02 | 0.07 | 0.07 | 89 | 1012.4 |
| 20260906172403 | 68 | 0 | 0.0 | 0.0 | 0.02 | 0.07 | 0.07 | 89 | 1012.4 |
| 20260906172203 | 68 | 0 | 0.0 | 0.0 | 0.02 | 0.07 | 0.07 | 89 | 1012.2 |
| 20260906172003 | 68 | 0 | 0.0 | 0.0 | 0.02 | 0.07 | 0.07 | 88 | 1012.2 |
| 20260906171803 | 68 | 0 | 0.0 | 0.0 | 0.02 | 0.07 | 0.07 | 88 | 1012.2 |
| 20260906171624 | 68 | 0 | 0.0 | 0.0 | 0.02 | 0.07 | 0.07 | 88 | 1012.2 |
| 20260906171403 | 68 | 307 | 0.0 | 2.0 | 0.02 | 0.07 | 0.07 | 88 | 1012.0 |
| 20260906171204 | 68 | 307 | 0.0 | 2.0 | 0.02 | 0.07 | 0.07 | 87 | 1012.0 |
| 20260906171003 | 68 | 307 | 0.0 | 2.0 | 0.02 | 0.07 | 0.07 | 87 | 1011.9 |
| 20260906170803 | 68 | 307 | 0.0 | 2.0 | 0.02 | 0.07 | 0.07 | 85 | 1011.8 |
| 20260906170603 | 69 | 307 | 0.0 | 2.0 | 0.02 | 0.07 | 0.07 | 84 | 1011.8 |
| 20260906170403 | 69 | 121 | 0.0 | 1.0 | 0.02 | 0.07 | 0.07 | 85 | 1011.8 |
| 20260906170203 | 70 | 128 | 0.0 | 2.0 | 0.02 | 0.07 | 0.07 | 85 | 1011.7 |
| 20260906170024 | 70 | 125 | 0.0 | 2.0 | 0.02 | 0.07 | 0.07 | 84 | 1011.6 |
| 20260906165803 | 70 | 125 | 1.0 | 2.0 | 0.02 | 0.07 | 0.07 | 83 | 1011.5 |
| 20260906165603 | 70 | 119 | 1.0 | 5.0 | 0.02 | 0.07 | 0.07 | 82 | 1011.5 |
| 20260906165403 | 70 | 117 | 1.0 | 5.0 | 0.02 | 0.06 | 0.06 | 81 | 1011.4 |
| 20260906165203 | 70 | 114 | 1.0 | 5.0 | 0.02 | 0.06 | 0.06 | 81 | 1011.3 |
| 20260906165003 | 70 | 117 | 1.0 | 5.0 | 0.02 | 0.06 | 0.06 | 81 | 1011.4 |
| 20260906164824 | 70 | 119 | 1.0 | 5.0 | 0.02 | 0.06 | 0.06 | 81 | 1011.3 |
| 20260906164603 | 70 | 126 | 1.0 | 3.0 | 0.02 | 0.06 | 0.06 | 81 | 1011.4 |
| 20260906164403 | 70 | 146 | 0.0 | 3.0 | 0.02 | 0.06 | 0.06 | 81 | 1011.4 |
| 20260906164224 | 70 | 154 | 0.0 | 3.0 | 0.02 | 0.06 | 0.06 | 81 | 1011.4 |
| 20260906164003 | 70 | 136 | 0.0 | 2.0 | 0.02 | 0.06 | 0.06 | 83 | 1011.3 |
| 20260906163804 | 70 | 116 | 0.0 | 2.0 | 0.02 | 0.06 | 0.06 | 84 | 1011.2 |
| 20260906163603 | 70 | 0 | 0.0 | 0.0 | 0.01 | 0.06 | 0.06 | 84 | 1011.2 |
| 20260906163403 | 69 | 0 | 0.0 | 0.0 | 0.01 | 0.06 | 0.06 | 85 | 1011.2 |
| 20260906163203 | 69 | 0 | 0.0 | 0.0 | 0.01 | 0.06 | 0.06 | 87 | 1011.2 |
| 20260906163003 | 69 | 0 | 0.0 | 0.0 | 0.01 | 0.06 | 0.06 | 87 | 1011.1 |
| 20260906162803 | 69 | 0 | 0.0 | 0.0 | 0.02 | 0.06 | 0.06 | 88 | 1011.1 |
| 20260906162603 | 68 | 0 | 0.0 | 0.0 | 0.02 | 0.06 | 0.06 | 89 | 1011.0 |
| 20260906162403 | 68 | 0 | 0.0 | 0.0 | 0.02 | 0.06 | 0.06 | 90 | 1011.0 |
| 20260906162203 | 68 | 0 | 0.0 | 0.0 | 0.02 | 0.06 | 0.06 | 92 | 1010.9 |
| 20260906162003 | 67 | 0 | 0.0 | 0.0 | 0.02 | 0.06 | 0.06 | 92 | 1010.9 |
| 20260906161803 | 67 | 0 | 0.0 | 0.0 | 0.02 | 0.06 | 0.06 | 92 | 1010.9 |
| 20260906161624 | 67 | 0 | 0.0 | 0.0 | 0.02 | 0.06 | 0.06 | 92 | 1010.9 |
| 20260906161404 | 66 | 352 | 0.0 | 1.0 | 0.02 | 0.06 | 0.06 | 92 | 1010.9 |
| 20260906161204 | 66 | 352 | 0.0 | 1.0 | 0.02 | 0.06 | 0.06 | 92 | 1010.8 |
| 20260906161003 | 66 | 352 | 0.0 | 1.0 | 0.02 | 0.06 | 0.06 | 91 | 1010.8 |
| 20260906160803 | 66 | 352 | 0.0 | 1.0 | 0.02 | 0.06 | 0.06 | 90 | 1010.8 |
| 20260906160603 | 66 | 352 | 0.0 | 1.0 | 0.02 | 0.06 | 0.06 | 90 | 1010.8 |
| 20260906160424 | 66 | 352 | 0.0 | 1.0 | 0.01 | 0.05 | 0.05 | 90 | 1010.9 |
| 20260906160203 | 66 | 105 | 0.0 | 2.0 | 0.01 | 0.05 | 0.05 | 91 | 1010.8 |
| 20260906160003 | 65 | 104 | 0.0 | 2.0 | 0.01 | 0.05 | 0.05 | 91 | 1010.8 |
| 20260906155803 | 65 | 104 | 0.0 | 2.0 | 0.01 | 0.05 | 0.05 | 90 | 1010.8 |
| 20260906155603 | 65 | 104 | 0.0 | 2.0 | 0.01 | 0.05 | 0.05 | 91 | 1010.8 |
| 20260906155403 | 65 | 104 | 0.0 | 2.0 | 0.01 | 0.05 | 0.05 | 91 | 1010.9 |
| 20260906155203 | 65 | 104 | 0.0 | 2.0 | 0.01 | 0.05 | 0.05 | 91 | 1010.9 |
| 20260906155003 | 64 | 103 | 0.0 | 1.0 | 0.01 | 0.05 | 0.05 | 91 | 1010.9 |
| 20260906154803 | 64 | 103 | 0.0 | 1.0 | 0.02 | 0.05 | 0.05 | 91 | 1011.0 |
| 20260906154603 | 64 | 103 | 0.0 | 1.0 | 0.02 | 0.05 | 0.05 | 90 | 1010.8 |
| 20260906154403 | 63 | 103 | 0.0 | 1.0 | 0.02 | 0.05 | 0.05 | 90 | 1010.9 |
| 20260906154203 | 63 | 103 | 0.0 | 1.0 | 0.02 | 0.05 | 0.05 | 89 | 1011.0 |
| 20260906154003 | 63 | 0 | 0.0 | 0.0 | 0.02 | 0.05 | 0.05 | 88 | 1011.0 |
| 20260906153803 | 63 | 0 | 0.0 | 0.0 | 0.02 | 0.05 | 0.05 | 87 | 1011.0 |
| 20260906153603 | 63 | 0 | 0.0 | 0.0 | 0.02 | 0.05 | 0.05 | 86 | 1010.9 |
| 20260906153403 | 63 | 0 | 0.0 | 0.0 | 0.03 | 0.05 | 0.05 | 86 | 1011.0 |
| 20260906153203 | 62 | 0 | 0.0 | 0.0 | 0.03 | 0.05 | 0.05 | 85 | 1011.0 |
| 20260906153003 | 62 | 0 | 0.0 | 0.0 | 0.03 | 0.05 | 0.05 | 85 | 1011.1 |
| 20260906152803 | 63 | 0 | 0.0 | 0.0 | 0.02 | 0.04 | 0.04 | 85 | 1011.2 |
| 20260906152604 | 62 | 0 | 0.0 | 0.0 | 0.03 | 0.04 | 0.04 | 85 | 1011.2 |
| 20260906152404 | 62 | 0 | 0.0 | 0.0 | 0.03 | 0.04 | 0.04 | 85 | 1011.3 |
| 20260906152225 | 62 | 0 | 0.0 | 0.0 | 0.03 | 0.04 | 0.04 | 85 | 1011.2 |
| 20260906152004 | 62 | 0 | 0.0 | 0.0 | 0.03 | 0.04 | 0.04 | 84 | 1011.3 |
| 20260906151804 | 62 | 0 | 0.0 | 0.0 | 0.03 | 0.04 | 0.04 | 84 | 1011.3 |
| 20260906151604 | 62 | 0 | 0.0 | 0.0 | 0.03 | 0.04 | 0.04 | 84 | 1011.3 |
| 20260906151404 | 62 | 0 | 0.0 | 0.0 | 0.03 | 0.04 | 0.04 | 84 | 1011.3 |
| 20260906151204 | 62 | 0 | 0.0 | 0.0 | 0.03 | 0.04 | 0.04 | 83 | 1011.4 |
| 20260906151004 | 62 | 0 | 0.0 | 0.0 | 0.03 | 0.04 | 0.04 | 83 | 1011.5 |
| 20260906150804 | 62 | 0 | 0.0 | 0.0 | 0.03 | 0.04 | 0.04 | 83 | 1011.5 |
| 20260906150604 | 62 | 0 | 0.0 | 0.0 | 0.03 | 0.04 | 0.04 | 82 | 1011.4 |
| 20260906150405 | 62 | 0 | 0.0 | 0.0 | 0.03 | 0.04 | 0.04 | 82 | 1011.4 |
| 20260906150204 | 62 | 0 | 0.0 | 0.0 | 0.03 | 0.04 | 0.04 | 82 | 1011.5 |
| 20260906150004 | 63 | 0 | 0.0 | 0.0 | 0.03 | 0.04 | 0.04 | 82 | 1011.5 |
| 20260906145804 | 63 | 104 | 0.0 | 1.0 | 0.03 | 0.04 | 0.04 | 83 | 1011.5 |
| 20260906145604 | 63 | 97 | 0.0 | 2.0 | 0.03 | 0.04 | 0.04 | 84 | 1011.6 |
| 20260906145404 | 63 | 91 | 1.0 | 3.0 | 0.03 | 0.04 | 0.04 | 83 | 1011.6 |
| 20260906145204 | 63 | 89 | 1.0 | 3.0 | 0.03 | 0.04 | 0.04 | 83 | 1011.6 |
| 20260906145004 | 63 | 89 | 1.0 | 3.0 | 0.03 | 0.04 | 0.04 | 82 | 1011.5 |
| 20260906144804 | 63 | 90 | 1.0 | 3.0 | 0.02 | 0.03 | 0.03 | 81 | 1011.5 |
| 20260906144604 | 64 | 87 | 1.0 | 3.0 | 0.02 | 0.03 | 0.03 | 80 | 1011.6 |
| 20260906144404 | 64 | 90 | 1.0 | 3.0 | 0.02 | 0.02 | 0.02 | 79 | 1011.5 |
| 20260906144225 | 64 | 94 | 0.0 | 2.0 | 0.02 | 0.02 | 0.02 | 78 | 1011.6 |
| 20260906144004 | 64 | 94 | 0.0 | 2.0 | 0.02 | 0.02 | 0.02 | 77 | 1011.5 |
| 20260906143804 | 65 | 94 | 0.0 | 2.0 | 0.02 | 0.02 | 0.02 | 77 | 1011.5 |
| 20260906143604 | 65 | 94 | 0.0 | 2.0 | 0.02 | 0.02 | 0.02 | 76 | 1011.4 |
| 20260906143404 | 66 | 89 | 0.0 | 2.0 | 0.01 | 0.02 | 0.02 | 75 | 1011.4 |
| 20260906143204 | 66 | 0 | 0.0 | 0.0 | 0.01 | 0.02 | 0.02 | 73 | 1011.4 |
| 20260906143005 | 66 | 0 | 0.0 | 0.0 | 0.01 | 0.02 | 0.02 | 73 | 1011.4 |
| 20260906142804 | 66 | 0 | 0.0 | 0.0 | 0.01 | 0.02 | 0.02 | 73 | 1011.5 |
| 20260906142604 | 66 | 0 | 0.0 | 0.0 | 0.00 | 0.01 | 0.01 | 73 | 1011.4 |
| 20260906142404 | 66 | 0 | 0.0 | 0.0 | 0.00 | 0.01 | 0.01 | 71 | 1011.5 |
| 20260906142204 | 66 | 0 | 0.0 | 0.0 | 0.00 | 0.01 | 0.01 | 73 | 1011.4 |
| 20260906142004 | 66 | 0 | 0.0 | 0.0 | 0.00 | 0.01 | 0.01 | 75 | 1011.4 |
| 20260906141804 | 66 | 59 | 0.0 | 1.0 | 0.00 | 0.01 | 0.01 | 75 | 1011.4 |
| 20260906141604 | 66 | 59 | 0.0 | 1.0 | 0.00 | 0.01 | 0.01 | 76 | 1011.4 |
| 20260906141405 | 66 | 57 | 0.0 | 2.0 | 0.00 | 0.01 | 0.01 | 77 | 1011.4 |
| 20260906141204 | 66 | 57 | 0.0 | 2.0 | 0.00 | 0.01 | 0.01 | 76 | 1011.3 |
| 20260906141004 | 66 | 58 | 0.0 | 2.0 | 0.00 | 0.01 | 0.01 | 77 | 1011.3 |
| 20260906140804 | 66 | 57 | 0.0 | 2.0 | 0.00 | 0.01 | 0.01 | 79 | 1011.2 |
| 20260906140605 | 66 | 84 | 0.0 | 2.0 | 0.00 | 0.01 | 0.01 | 79 | 1011.1 |
| 20260906140404 | 66 | 97 | 0.0 | 2.0 | 0.00 | 0.01 | 0.01 | 80 | 1011.1 |
| 20260906140225 | 66 | 97 | 0.0 | 2.0 | 0.00 | 0.01 | 0.01 | 79 | 1011.0 |
| 20260906140004 | 66 | 98 | 0.0 | 2.0 | 0.00 | 0.01 | 0.01 | 80 | 1010.9 |
| 20260906135825 | 66 | 98 | 0.0 | 2.0 | 0.00 | 0.01 | 0.01 | 79 | 1010.9 |
| 20260906135625 | 67 | 98 | 0.0 | 2.0 | 0.00 | 0.01 | 0.01 | 79 | 1010.9 |
| 20260906135425 | 67 | 0 | 0.0 | 0.0 | 0.00 | 0.01 | 0.01 | 79 | 1010.9 |
| 20260906135204 | 67 | 0 | 0.0 | 0.0 | 0.00 | 0.01 | 0.01 | 77 | 1010.8 |
| 20260906135004 | 67 | 0 | 0.0 | 0.0 | 0.00 | 0.01 | 0.01 | 76 | 1010.8 |
| 20260906134804 | 67 | 0 | 0.0 | 0.0 | 0.01 | 0.01 | 0.01 | 77 | 1010.7 |
| 20260906134604 | 67 | 194 | 0.0 | 1.0 | 0.01 | 0.01 | 0.01 | 76 | 1010.7 |
| 20260906134425 | 66 | 191 | 0.0 | 3.0 | 0.01 | 0.01 | 0.01 | 76 | 1010.6 |
| 20260906134204 | 66 | 186 | 1.0 | 3.0 | 0.01 | 0.01 | 0.01 | 77 | 1010.6 |
| 20260906134004 | 66 | 186 | 1.0 | 3.0 | 0.01 | 0.01 | 0.01 | 77 | 1010.4 |
| 20260906133825 | 66 | 186 | 1.0 | 3.0 | 0.01 | 0.01 | 0.01 | 77 | 1010.4 |
| 20260906133604 | 66 | 183 | 0.0 | 3.0 | 0.01 | 0.01 | 0.01 | 77 | 1010.2 |
| 20260906133404 | 66 | 171 | 0.0 | 2.0 | 0.01 | 0.01 | 0.01 | 78 | 1010.1 |
| 20260906133204 | 66 | 0 | 0.0 | 0.0 | 0.01 | 0.01 | 0.01 | 79 | 1010.0 |
| 20260906133004 | 66 | 0 | 0.0 | 0.0 | 0.01 | 0.01 | 0.01 | 79 | 1010.0 |
| 20260906132804 | 66 | 0 | 0.0 | 0.0 | 0.01 | 0.01 | 0.01 | 79 | 1009.9 |
| 20260906132604 | 66 | 0 | 0.0 | 0.0 | 0.01 | 0.01 | 0.01 | 79 | 1009.8 |
| 20260906132404 | 66 | 0 | 0.0 | 0.0 | 0.01 | 0.01 | 0.01 | 78 | 1009.7 |
| 20260906132204 | 66 | 0 | 0.0 | 0.0 | 0.01 | 0.01 | 0.01 | 78 | 1009.7 |
| 20260906132025 | 66 | 0 | 0.0 | 0.0 | 0.01 | 0.01 | 0.01 | 78 | 1009.6 |
| 20260906131804 | 67 | 0 | 0.0 | 0.0 | 0.01 | 0.01 | 0.01 | 78 | 1009.5 |
| 20260906131604 | 67 | 0 | 0.0 | 0.0 | 0.01 | 0.01 | 0.01 | 77 | 1009.6 |
| 20260906131404 | 67 | 0 | 0.0 | 0.0 | 0.01 | 0.01 | 0.01 | 76 | 1009.6 |
| 20260906131205 | 67 | 0 | 0.0 | 0.0 | 0.01 | 0.01 | 0.01 | 75 | 1009.6 |
| 20260906131004 | 67 | 0 | 0.0 | 0.0 | 0.01 | 0.01 | 0.01 | 75 | 1009.6 |
| 20260906130804 | 67 | 0 | 0.0 | 0.0 | 0.01 | 0.01 | 0.01 | 75 | 1009.8 |
| 20260906130604 | 68 | 134 | 0.0 | 2.0 | 0.01 | 0.01 | 0.01 | 75 | 1009.8 |
| 20260906130404 | 68 | 136 | 0.0 | 3.0 | 0.01 | 0.01 | 0.01 | 74 | 1009.7 |
| 20260906130204 | 68 | 136 | 0.0 | 3.0 | 0.01 | 0.01 | 0.01 | 72 | 1009.8 |
| 20260906130005 | 68 | 136 | 0.0 | 3.0 | 0.01 | 0.01 | 0.01 | 71 | 1009.8 |
| 20260906125825 | 68 | 136 | 0.0 | 3.0 | 0.01 | 0.01 | 0.01 | 72 | 1009.8 |
| 20260906125604 | 68 | 137 | 0.0 | 3.0 | 0.01 | 0.01 | 0.01 | 70 | 1009.8 |
| 20260906125404 | 68 | 0 | 0.0 | 0.0 | 0.01 | 0.01 | 0.01 | 69 | 1009.8 |
| 20260906125204 | 68 | 0 | 0.0 | 0.0 | 0.01 | 0.01 | 0.01 | 69 | 1009.7 |
| 20260906125004 | 68 | 96 | 0.0 | 1.0 | 0.01 | 0.01 | 0.01 | 71 | 1009.8 |
| 20260906124804 | 68 | 95 | 0.0 | 2.0 | 0.00 | 0.00 | 0.00 | 69 | 1009.8 |
| 20260906124604 | 68 | 94 | 0.0 | 2.0 | 0.00 | 0.00 | 0.00 | 69 | 1009.7 |
| 20260906124404 | 68 | 94 | 0.0 | 2.0 | 0.00 | 0.00 | 0.00 | 70 | 1009.7 |
| 20260906124204 | 67 | 94 | 0.0 | 2.0 | 0.00 | 0.00 | 0.00 | 71 | 1009.8 |
| 20260906124004 | 67 | 94 | 0.0 | 2.0 | 0.00 | 0.00 | 0.00 | 71 | 1009.8 |
| 20260906123804 | 67 | 97 | 0.0 | 3.0 | 0.00 | 0.00 | 0.00 | 72 | 1009.9 |
| 20260906123604 | 67 | 94 | 1.0 | 4.0 | 0.00 | 0.00 | 0.00 | 72 | 1009.9 |
| 20260906123404 | 67 | 92 | 1.0 | 4.0 | 0.00 | 0.00 | 0.00 | 72 | 1009.9 |
| 20260906123204 | 67 | 93 | 1.0 | 4.0 | 0.00 | 0.00 | 0.00 | 71 | 1009.9 |
| 20260906123025 | 67 | 95 | 1.0 | 4.0 | 0.00 | 0.00 | 0.00 | 71 | 1010.0 |
| 20260906122804 | 67 | 94 | 2.0 | 4.0 | 0.00 | 0.00 | 0.00 | 71 | 1010.0 |
| 20260906122604 | 67 | 92 | 2.0 | 4.0 | 0.00 | 0.00 | 0.00 | 70 | 1009.9 |
| 20260906122404 | 67 | 93 | 1.0 | 4.0 | 0.00 | 0.00 | 0.00 | 69 | 1010.0 |
| 20260906122204 | 66 | 92 | 1.0 | 4.0 | 0.00 | 0.00 | 0.00 | 71 | 1010.1 |
| 20260906122004 | 66 | 90 | 1.0 | 4.0 | 0.00 | 0.00 | 0.00 | 72 | 1010.0 |
| 20260906121804 | 66 | 88 | 1.0 | 4.0 | 0.00 | 0.00 | 0.00 | 73 | 1010.0 |
| 20260906121625 | 67 | 92 | 0.0 | 3.0 | 0.00 | 0.00 | 0.00 | 73 | 1010.0 |
| 20260906121405 | 67 | 94 | 0.0 | 2.0 | 0.00 | 0.00 | 0.00 | 71 | 1010.1 |
| 20260906121204 | 68 | 81 | 0.0 | 2.0 | 0.00 | 0.00 | 0.00 | 70 | 1010.2 |
| 20260906121004 | 68 | 113 | 1.0 | 9.0 | 0.00 | 0.00 | 0.00 | 68 | 1010.3 |
| 20260906120804 | 68 | 117 | 2.0 | 9.0 | 0.00 | 0.00 | 0.00 | 67 | 1010.3 |
| 20260906120604 | 68 | 114 | 3.0 | 9.0 | 0.00 | 0.00 | 0.00 | 67 | 1010.3 |
| 20260906120404 | 69 | 113 | 4.0 | 9.0 | 0.00 | 0.00 | 0.00 | 64 | 1010.4 |
| 20260906120204 | 69 | 113 | 5.0 | 9.0 | 0.00 | 0.00 | 0.00 | 62 | 1010.3 |
| 20260906120005 | 69 | 112 | 5.0 | 8.0 | 0.00 | 0.00 | 0.00 | 62 | 1010.3 |
| 20260906115804 | 69 | 110 | 5.0 | 8.0 | 0.00 | 0.00 | 0.00 | 61 | 1010.3 |
| 20260906115605 | 69 | 112 | 5.0 | 8.0 | 0.00 | 0.00 | 0.00 | 61 | 1010.4 |
| 20260906115425 | 70 | 115 | 5.0 | 8.0 | 0.00 | 0.00 | 0.00 | 60 | 1010.3 |
| 20260906115225 | 70 | 116 | 4.0 | 8.0 | 0.00 | 0.00 | 0.00 | 59 | 1010.3 |
| 20260906115004 | 71 | 117 | 4.0 | 8.0 | 0.00 | 0.00 | 0.00 | 56 | 1010.3 |
| 20260906114804 | 72 | 120 | 3.0 | 7.0 | 0.00 | 0.00 | 0.00 | 55 | 1010.3 |
| 20260906114604 | 72 | 121 | 2.0 | 7.0 | 0.00 | 0.00 | 0.00 | 53 | 1010.4 |
| 20260906114425 | 72 | 117 | 2.0 | 7.0 | 0.00 | 0.00 | 0.00 | 52 | 1010.4 |
| 20260906114204 | 71 | 117 | 1.0 | 5.0 | 0.00 | 0.00 | 0.00 | 51 | 1010.4 |
| 20260906114004 | 71 | 120 | 1.0 | 3.0 | 0.00 | 0.00 | 0.00 | 53 | 1010.4 |
| 20260906113804 | 71 | 117 | 0.0 | 3.0 | 0.00 | 0.00 | 0.00 | 53 | 1010.3 |
| 20260906113604 | 71 | 120 | 0.0 | 3.0 | 0.00 | 0.00 | 0.00 | 54 | 1010.3 |
| 20260906113425 | 71 | 106 | 0.0 | 1.0 | 0.00 | 0.00 | 0.00 | 55 | 1010.3 |
| 20260906113204 | 70 | 0 | 0.0 | 0.0 | 0.00 | 0.00 | 0.00 | 56 | 1010.4 |
| 20260906113004 | 70 | 0 | 0.0 | 0.0 | 0.00 | 0.00 | 0.00 | 56 | 1010.4 |
| 20260906112804 | 70 | 84 | 0.0 | 1.0 | 0.00 | 0.00 | 0.00 | 58 | 1010.4 |
| 20260906112626 | 70 | 87 | 0.0 | 2.0 | 0.00 | 0.00 | 0.00 | 59 | 1010.4 |
| 20260906112404 | 70 | 87 | 0.0 | 2.0 | 0.00 | 0.00 | 0.00 | 60 | 1010.3 |
| 20260906112204 | 70 | 87 | 0.0 | 2.0 | 0.00 | 0.00 | 0.00 | 61 | 1010.3 |
| 20260906112025 | 70 | 87 | 0.0 | 2.0 | 0.00 | 0.00 | 0.00 | 60 | 1010.4 |
| 20260906111804 | 70 | 87 | 0.0 | 2.0 | 0.00 | 0.00 | 0.00 | 61 | 1010.4 |
| 20260906111604 | 70 | 0 | 0.0 | 0.0 | 0.00 | 0.00 | 0.00 | 61 | 1010.4 |
| 20260906111404 | 70 | 0 | 0.0 | 0.0 | 0.00 | 0.00 | 0.00 | 61 | 1010.5 |
| 20260906111205 | 71 | 0 | 0.0 | 0.0 | 0.00 | 0.00 | 0.00 | 59 | 1010.5 |
| 20260906111005 | 71 | 0 | 0.0 | 0.0 | 0.00 | 0.00 | 0.00 | 57 | 1010.5 |
| 20260906110804 | 72 | 0 | 0.0 | 0.0 | 0.00 | 0.00 | 0.00 | 54 | 1010.5 |
| 20260906110604 | 72 | 0 | 0.0 | 0.0 | 0.00 | 0.00 | 0.00 | 52 | 1010.4 |
| 20260906110404 | 73 | 0 | 0.0 | 0.0 | 0.00 | 0.00 | 0.00 | 49 | 1010.4 |
| 20260906110204 | 73 | 0 | 0.0 | 0.0 | 0.00 | 0.00 | 0.00 | 48 | 1010.4 |
| 20260906110004 | 73 | 0 | 0.0 | 0.0 | 0.00 | 0.00 | 0.00 | 47 | 1010.3 |
| 20260906105804 | 73 | 0 | 0.0 | 0.0 | 0.00 | 0.00 | 0.00 | 46 | 1010.4 |
| 20260906105604 | 73 | 0 | 0.0 | 0.0 | 0.00 | 0.00 | 0.00 | 46 | 1010.5 |
| 20260906105404 | 73 | 0 | 0.0 | 0.0 | 0.00 | 0.00 | 0.00 | 47 | 1010.4 |
| 20260906105204 | 73 | 0 | 0.0 | 0.0 | 0.00 | 0.00 | 0.00 | 47 | 1010.4 |
| 20260906105004 | 73 | 221 | 0.0 | 1.0 | 0.00 | 0.00 | 0.00 | 47 | 1010.4 |
| 20260906104804 | 73 | 221 | 0.0 | 1.0 | 0.00 | 0.00 | 0.00 | 47 | 1010.4 |
| 20260906104604 | 73 | 221 | 0.0 | 1.0 | 0.00 | 0.00 | 0.00 | 47 | 1010.4 |
| 20260906104404 | 73 | 221 | 0.0 | 1.0 | 0.00 | 0.00 | 0.00 | 47 | 1010.4 |
| 20260906104225 | 73 | 221 | 0.0 | 1.0 | 0.00 | 0.00 | 0.00 | 47 | 1010.4 |
| 20260906104004 | 72 | 0 | 0.0 | 0.0 | 0.00 | 0.00 | 0.00 | 47 | 1010.4 |
| 20260906103825 | 72 | 0 | 0.0 | 0.0 | 0.00 | 0.00 | 0.00 | 47 | 1010.3 |
| 20260906103604 | 72 | 0 | 0.0 | 0.0 | 0.00 | 0.00 | 0.00 | 47 | 1010.3 |
| 20260906103425 | 72 | 0 | 0.0 | 0.0 | 0.00 | 0.00 | 0.00 | 47 | 1010.2 |
| 20260906103204 | 72 | 84 | 0.0 | 1.0 | 0.00 | 0.00 | 0.00 | 47 | 1010.2 |
| 20260906103004 | 72 | 84 | 0.0 | 1.0 | 0.00 | 0.00 | 0.00 | 46 | 1010.2 |
| 20260906102825 | 72 | 84 | 0.0 | 1.0 | 0.00 | 0.00 | 0.00 | 46 | 1010.2 |
| 20260906102604 | 72 | 84 | 0.0 | 1.0 | 0.00 | 0.00 | 0.00 | 46 | 1010.2 |
| 20260906102404 | 72 | 84 | 0.0 | 1.0 | 0.00 | 0.00 | 0.00 | 47 | 1010.2 |
| 20260906102204 | 72 | 0 | 0.0 | 0.0 | 0.00 | 0.00 | 0.00 | 47 | 1010.2 |
| 20260906102004 | 72 | 0 | 0.0 | 0.0 | 0.00 | 0.00 | 0.00 | 46 | 1010.2 |
| 20260906101805 | 72 | 0 | 0.0 | 0.0 | 0.00 | 0.00 | 0.00 | 47 | 1010.2 |
| 20260906101604 | 72 | 88 | 0.0 | 1.0 | 0.00 | 0.00 | 0.00 | 47 | 1010.3 |
| 20260906101404 | 72 | 88 | 0.0 | 1.0 | 0.00 | 0.00 | 0.00 | 48 | 1010.3 |
| 20260906101204 | 72 | 88 | 0.0 | 1.0 | 0.00 | 0.00 | 0.00 | 49 | 1010.3 |
| 20260906101004 | 72 | 88 | 0.0 | 1.0 | 0.00 | 0.00 | 0.00 | 49 | 1010.2 |
| 20260906100804 | 72 | 88 | 0.0 | 1.0 | 0.00 | 0.00 | 0.00 | 49 | 1010.3 |
| 20260906100604 | 72 | 0 | 0.0 | 0.0 | 0.00 | 0.00 | 0.00 | 49 | 1010.3 |
| 20260906100404 | 72 | 0 | 0.0 | 0.0 | 0.00 | 0.00 | 0.00 | 48 | 1010.4 |
| 20260906100225 | 72 | 0 | 0.0 | 0.0 | 0.00 | 0.00 | 0.00 | 48 | 1010.4 |
| 20260906100005 | 72 | 0 | 0.0 | 0.0 | 0.00 | 0.00 | 0.00 | 48 | 1010.5 |
| 20260906095805 | 72 | 0 | 0.0 | 0.0 | 0.00 | 0.00 | 0.00 | 49 | 1010.5 |
| 20260906095604 | 72 | 0 | 0.0 | 0.0 | 0.00 | 0.00 | 0.00 | 49 | 1010.5 |
| 20260906095404 | 72 | 0 | 0.0 | 0.0 | 0.00 | 0.00 | 0.00 | 50 | 1010.5 |
| 20260906095204 | 72 | 0 | 0.0 | 0.0 | 0.00 | 0.00 | 0.00 | 50 | 1010.5 |
| 20260906095004 | 72 | 0 | 0.0 | 0.0 | 0.00 | 0.00 | 0.00 | 50 | 1010.5 |
| 20260906094805 | 72 | 0 | 0.0 | 0.0 | 0.00 | 0.00 | 0.00 | 50 | 1010.6 |
| 20260906094604 | 72 | 0 | 0.0 | 0.0 | 0.00 | 0.00 | 0.00 | 50 | 1010.6 |
| 20260906094404 | 72 | 0 | 0.0 | 0.0 | 0.00 | 0.00 | 0.00 | 50 | 1010.6 |
| 20260906094204 | 71 | 0 | 0.0 | 0.0 | 0.00 | 0.00 | 0.00 | 51 | 1010.7 |
| 20260906094004 | 71 | 0 | 0.0 | 0.0 | 0.00 | 0.00 | 0.00 | 51 | 1010.6 |
| 20260906093804 | 71 | 0 | 0.0 | 0.0 | 0.00 | 0.00 | 0.00 | 51 | 1010.6 |
| 20260906093604 | 71 | 0 | 0.0 | 0.0 | 0.00 | 0.00 | 0.00 | 51 | 1010.6 |
| 20260906093404 | 71 | 0 | 0.0 | 0.0 | 0.00 | 0.00 | 0.00 | 52 | 1010.6 |
| 20260906093204 | 71 | 0 | 0.0 | 0.0 | 0.00 | 0.00 | 0.00 | 52 | 1010.7 |
| 20260906093004 | 71 | 0 | 0.0 | 0.0 | 0.00 | 0.00 | 0.00 | 52 | 1010.7 |
| 20260906092804 | 71 | 0 | 0.0 | 0.0 | 0.00 | 0.00 | 0.00 | 51 | 1010.8 |
| 20260906092604 | 71 | 0 | 0.0 | 0.0 | 0.00 | 0.00 | 0.00 | 51 | 1010.7 |
| 20260906092404 | 71 | 0 | 0.0 | 0.0 | 0.00 | 0.00 | 0.00 | 51 | 1010.8 |
| 20260906092204 | 71 | 103 | 0.0 | 1.0 | 0.00 | 0.00 | 0.00 | 51 | 1010.8 |
| 20260906092004 | 71 | 103 | 0.0 | 1.0 | 0.00 | 0.00 | 0.00 | 51 | 1010.8 |
| 20260906091805 | 71 | 103 | 0.0 | 1.0 | 0.00 | 0.00 | 0.00 | 51 | 1010.8 |
| 20260906091604 | 70 | 103 | 0.0 | 1.0 | 0.00 | 0.00 | 0.00 | 51 | 1010.9 |
| 20260906091404 | 70 | 103 | 0.0 | 1.0 | 0.00 | 0.00 | 0.00 | 51 | 1010.8 |
| 20260906091204 | 70 | 111 | 0.0 | 1.0 | 0.00 | 0.00 | 0.00 | 51 | 1010.8 |
| 20260906091004 | 70 | 111 | 0.0 | 1.0 | 0.00 | 0.00 | 0.00 | 51 | 1010.8 |
| 20260906090804 | 70 | 111 | 0.0 | 1.0 | 0.00 | 0.00 | 0.00 | 51 | 1010.8 |
| 20260906090604 | 70 | 111 | 0.0 | 1.0 | 0.00 | 0.00 | 0.00 | 51 | 1010.8 |
| 20260906090404 | 70 | 111 | 0.0 | 1.0 | 0.00 | 0.00 | 0.00 | 51 | 1010.8 |
| 20260906090204 | 70 | 0 | 0.0 | 0.0 | 0.00 | 0.00 | 0.00 | 51 | 1010.8 |
| 20260906090004 | 71 | 0 | 0.0 | 0.0 | 0.00 | 0.00 | 0.00 | 51 | 1010.8 |
| 20260906085825 | 71 | 0 | 0.0 | 0.0 | 0.00 | 0.00 | 0.00 | 50 | 1010.8 |
| 20260906085604 | 71 | 248 | 0.0 | 1.0 | 0.00 | 0.00 | 0.00 | 50 | 1010.8 |
| 20260906085404 | 71 | 248 | 0.0 | 1.0 | 0.00 | 0.00 | 0.00 | 49 | 1010.8 |
| 20260906085204 | 72 | 248 | 0.0 | 1.0 | 0.00 | 0.00 | 0.00 | 48 | 1010.8 |
| 20260906085004 | 72 | 248 | 0.0 | 1.0 | 0.00 | 0.00 | 0.00 | 48 | 1010.8 |
| 20260906084804 | 72 | 248 | 0.0 | 1.0 | 0.00 | 0.00 | 0.00 | 47 | 1010.8 |
| 20260906084604 | 72 | 248 | 0.0 | 1.0 | 0.00 | 0.00 | 0.00 | 48 | 1010.8 |
| 20260906084404 | 72 | 0 | 0.0 | 0.0 | 0.00 | 0.00 | 0.00 | 48 | 1010.8 |
| 20260906084204 | 72 | 0 | 0.0 | 0.0 | 0.00 | 0.00 | 0.00 | 48 | 1010.8 |
| 20260906084005 | 72 | 161 | 0.0 | 2.0 | 0.00 | 0.00 | 0.00 | 48 | 1010.8 |
| 20260906083805 | 72 | 161 | 0.0 | 2.0 | 0.00 | 0.00 | 0.00 | 47 | 1010.7 |
| 20260906083625 | 72 | 161 | 0.0 | 2.0 | 0.00 | 0.00 | 0.00 | 47 | 1010.7 |
| 20260906083404 | 72 | 155 | 0.0 | 2.0 | 0.00 | 0.00 | 0.00 | 46 | 1010.7 |
| 20260906083204 | 72 | 155 | 0.0 | 2.0 | 0.00 | 0.00 | 0.00 | 46 | 1010.8 |
| 20260906083004 | 72 | 101 | 0.0 | 1.0 | 0.00 | 0.00 | 0.00 | 46 | 1010.8 |
| 20260906082804 | 72 | 101 | 0.0 | 1.0 | 0.00 | 0.00 | 0.00 | 46 | 1010.8 |
| 20260906082604 | 72 | 90 | 0.0 | 2.0 | 0.00 | 0.00 | 0.00 | 46 | 1010.8 |
| 20260906082404 | 72 | 92 | 0.0 | 2.0 | 0.00 | 0.00 | 0.00 | 45 | 1010.8 |
| 20260906082204 | 72 | 94 | 1.0 | 2.0 | 0.00 | 0.00 | 0.00 | 45 | 1010.7 |
| 20260906082004 | 72 | 96 | 1.0 | 2.0 | 0.00 | 0.00 | 0.00 | 46 | 1010.7 |
| 20260906081825 | 72 | 96 | 1.0 | 2.0 | 0.00 | 0.00 | 0.00 | 46 | 1010.7 |
| 20260906081604 | 71 | 96 | 2.0 | 3.0 | 0.00 | 0.00 | 0.00 | 46 | 1010.7 |
| 20260906081404 | 71 | 96 | 2.0 | 4.0 | 0.00 | 0.00 | 0.00 | 46 | 1010.7 |
| 20260906081204 | 71 | 95 | 2.0 | 4.0 | 0.00 | 0.00 | 0.00 | 47 | 1010.7 |
| 20260906081004 | 71 | 91 | 2.0 | 4.0 | 0.00 | 0.00 | 0.00 | 47 | 1010.7 |
| 20260906080804 | 70 | 90 | 2.0 | 4.0 | 0.00 | 0.00 | 0.00 | 48 | 1010.7 |
| 20260906080604 | 70 | 90 | 1.0 | 4.0 | 0.00 | 0.00 | 0.00 | 48 | 1010.7 |
| 20260906080405 | 70 | 88 | 1.0 | 4.0 | 0.00 | 0.00 | 0.00 | 48 | 1010.7 |
| 20260906080204 | 70 | 84 | 1.0 | 4.0 | 0.00 | 0.00 | 0.00 | 48 | 1010.7 |
| 20260906080025 | 70 | 86 | 0.0 | 3.0 | 0.00 | 0.00 | 0.00 | 47 | 1010.8 |
| 20260906075804 | 70 | 110 | 0.0 | 1.0 | 0.00 | 0.00 | 0.00 | 48 | 1010.9 |
| 20260906075605 | 70 | 110 | 0.0 | 1.0 | 0.00 | 0.00 | 0.00 | 48 | 1011.0 |
| 20260906075404 | 70 | 110 | 0.0 | 1.0 | 0.00 | 0.00 | 0.00 | 48 | 1011.0 |
| 20260906075225 | 70 | 110 | 0.0 | 1.0 | 0.00 | 0.00 | 0.00 | 48 | 1011.0 |
| 20260906075004 | 70 | 110 | 0.0 | 1.0 | 0.00 | 0.00 | 0.00 | 48 | 1011.0 |
| 20260906074804 | 70 | 0 | 0.0 | 0.0 | 0.00 | 0.00 | 0.00 | 48 | 1011.0 |
| 20260906074604 | 70 | 0 | 0.0 | 0.0 | 0.00 | 0.00 | 0.00 | 48 | 1011.0 |
| 20260906074404 | 70 | 0 | 0.0 | 0.0 | 0.00 | 0.00 | 0.00 | 48 | 1011.1 |
| 20260906074204 | 70 | 0 | 0.0 | 0.0 | 0.00 | 0.00 | 0.00 | 48 | 1011.0 |
| 20260906074025 | 70 | 0 | 0.0 | 0.0 | 0.00 | 0.00 | 0.00 | 48 | 1011.0 |
| 20260906073804 | 70 | 0 | 0.0 | 0.0 | 0.00 | 0.00 | 0.00 | 48 | 1011.0 |
| 20260906073625 | 70 | 0 | 0.0 | 0.0 | 0.00 | 0.00 | 0.00 | 48 | 1011.0 |
| 20260906073404 | 71 | 0 | 0.0 | 0.0 | 0.00 | 0.00 | 0.00 | 47 | 1011.0 |
| 20260906073204 | 71 | 0 | 0.0 | 0.0 | 0.00 | 0.00 | 0.00 | 46 | 1011.1 |
| 20260906073004 | 71 | 0 | 0.0 | 0.0 | 0.00 | 0.00 | 0.00 | 46 | 1011.0 |
| 20260906072805 | 71 | 0 | 0.0 | 0.0 | 0.00 | 0.00 | 0.00 | 46 | 1010.9 |
| 20260906072604 | 72 | 0 | 0.0 | 0.0 | 0.00 | 0.00 | 0.00 | 45 | 1010.9 |
| 20260906072404 | 72 | 0 | 0.0 | 0.0 | 0.00 | 0.00 | 0.00 | 45 | 1011.0 |
| 20260906072204 | 72 | 0 | 0.0 | 0.0 | 0.00 | 0.00 | 0.00 | 44 | 1010.9 |
| 20260906072005 | 72 | 0 | 0.0 | 0.0 | 0.00 | 0.00 | 0.00 | 44 | 1010.9 |
| 20260906071804 | 72 | 0 | 0.0 | 0.0 | 0.00 | 0.00 | 0.00 | 44 | 1010.9 |
| 20260906071625 | 72 | 0 | 0.0 | 0.0 | 0.00 | 0.00 | 0.00 | 44 | 1010.9 |
| 20260906071405 | 72 | 0 | 0.0 | 0.0 | 0.00 | 0.00 | 0.00 | 44 | 1010.9 |
| 20260906071204 | 72 | 0 | 0.0 | 0.0 | 0.00 | 0.00 | 0.00 | 44 | 1010.9 |
| 20260906071025 | 72 | 0 | 0.0 | 0.0 | 0.00 | 0.00 | 0.00 | 44 | 1010.9 |
| 20260906070805 | 72 | 0 | 0.0 | 0.0 | 0.00 | 0.00 | 0.00 | 44 | 1010.9 |
| 20260906070604 | 73 | 0 | 0.0 | 0.0 | 0.00 | 0.00 | 0.00 | 44 | 1010.8 |
| 20260906070405 | 73 | 0 | 0.0 | 0.0 | 0.00 | 0.00 | 0.00 | 44 | 1010.9 |
| 20260906070204 | 73 | 0 | 0.0 | 0.0 | 0.00 | 0.00 | 0.00 | 44 | 1010.9 |
| 20260906070025 | 73 | 0 | 0.0 | 0.0 | 0.00 | 0.00 | 0.00 | 44 | 1010.9 |
| 20260906065804 | 73 | 0 | 0.0 | 0.0 | 0.00 | 0.00 | 0.00 | 43 | 1010.9 |
| 20260906065604 | 73 | 0 | 0.0 | 0.0 | 0.00 | 0.00 | 0.00 | 43 | 1010.9 |
| 20260906065404 | 72 | 0 | 0.0 | 0.0 | 0.00 | 0.00 | 0.00 | 43 | 1010.8 |
| 20260906065204 | 72 | 0 | 0.0 | 0.0 | 0.00 | 0.00 | 0.00 | 43 | 1010.9 |
| 20260906065004 | 72 | 0 | 0.0 | 0.0 | 0.00 | 0.00 | 0.00 | 43 | 1010.9 |
| 20260906064825 | 72 | 82 | 0.0 | 1.0 | 0.00 | 0.00 | 0.00 | 43 | 1010.9 |
| 20260906064625 | 72 | 82 | 0.0 | 1.0 | 0.00 | 0.00 | 0.00 | 43 | 1010.9 |
| 20260906064404 | 72 | 82 | 0.0 | 1.0 | 0.00 | 0.00 | 0.00 | 43 | 1010.9 |
| 20260906064204 | 72 | 82 | 0.0 | 1.0 | 0.00 | 0.00 | 0.00 | 43 | 1011.0 |
| 20260906064004 | 72 | 82 | 0.0 | 1.0 | 0.00 | 0.00 | 0.00 | 43 | 1011.0 |
| 20260906063804 | 72 | 0 | 0.0 | 0.0 | 0.00 | 0.00 | 0.00 | 43 | 1011.0 |
| 20260906063604 | 72 | 0 | 0.0 | 0.0 | 0.00 | 0.00 | 0.00 | 43 | 1011.0 |
| 20260906063404 | 73 | 96 | 0.0 | 1.0 | 0.00 | 0.00 | 0.00 | 43 | 1011.0 |
| 20260906063204 | 73 | 96 | 0.0 | 1.0 | 0.00 | 0.00 | 0.00 | 43 | 1011.0 |
| 20260906063004 | 72 | 88 | 0.0 | 3.0 | 0.00 | 0.00 | 0.00 | 43 | 1011.0 |
| 20260906062804 | 72 | 88 | 1.0 | 3.0 | 0.00 | 0.00 | 0.00 | 43 | 1011.0 |
| 20260906062604 | 72 | 88 | 1.0 | 3.0 | 0.00 | 0.00 | 0.00 | 43 | 1011.1 |
| 20260906062404 | 72 | 88 | 1.0 | 3.0 | 0.00 | 0.00 | 0.00 | 42 | 1011.1 |
| 20260906062204 | 72 | 88 | 1.0 | 3.0 | 0.00 | 0.00 | 0.00 | 42 | 1011.2 |
| 20260906062025 | 72 | 87 | 0.0 | 3.0 | 0.00 | 0.00 | 0.00 | 42 | 1011.2 |
| 20260906061805 | 72 | 0 | 0.0 | 0.0 | 0.00 | 0.00 | 0.00 | 41 | 1011.1 |
| 20260906061625 | 72 | 0 | 0.0 | 0.0 | 0.00 | 0.00 | 0.00 | 41 | 1011.1 |
| 20260906061404 | 73 | 101 | 0.0 | 1.0 | 0.00 | 0.00 | 0.00 | 41 | 1011.1 |
| 20260906061204 | 73 | 101 | 0.0 | 1.0 | 0.00 | 0.00 | 0.00 | 41 | 1011.1 |
| 20260906061004 | 73 | 101 | 0.0 | 1.0 | 0.00 | 0.00 | 0.00 | 41 | 1011.0 |
| 20260906060805 | 73 | 101 | 0.0 | 1.0 | 0.00 | 0.00 | 0.00 | 41 | 1011.0 |
| 20260906060604 | 73 | 101 | 0.0 | 1.0 | 0.00 | 0.00 | 0.00 | 41 | 1011.1 |
| 20260906060425 | 72 | 0 | 0.0 | 0.0 | 0.00 | 0.00 | 0.00 | 41 | 1011.1 |
| 20260906060205 | 72 | 0 | 0.0 | 0.0 | 0.00 | 0.00 | 0.00 | 41 | 1011.1 |
| 20260906060004 | 72 | 90 | 0.0 | 1.0 | 0.00 | 0.00 | 0.00 | 41 | 1011.0 |
| 20260906055825 | 72 | 90 | 0.0 | 1.0 | 0.00 | 0.00 | 0.00 | 41 | 1011.1 |
| 20260906055604 | 72 | 90 | 0.0 | 1.0 | 0.00 | 0.00 | 0.00 | 41 | 1011.0 |
| 20260906055404 | 72 | 90 | 0.0 | 1.0 | 0.00 | 0.00 | 0.00 | 41 | 1011.0 |
| 20260906055204 | 72 | 90 | 0.0 | 1.0 | 0.00 | 0.00 | 0.00 | 41 | 1011.1 |
| 20260906055004 | 72 | 0 | 0.0 | 0.0 | 0.00 | 0.00 | 0.00 | 41 | 1011.0 |
| 20260906054804 | 72 | 0 | 0.0 | 0.0 | 0.00 | 0.00 | 0.00 | 41 | 1011.0 |
| 20260906054604 | 71 | 0 | 0.0 | 0.0 | 0.00 | 0.00 | 0.00 | 41 | 1011.1 |
| 20260906054404 | 71 | 0 | 0.0 | 0.0 | 0.00 | 0.00 | 0.00 | 41 | 1011.0 |
| 20260906054204 | 71 | 85 | 0.0 | 1.0 | 0.00 | 0.00 | 0.00 | 42 | 1011.0 |
| 20260906054025 | 71 | 94 | 0.0 | 1.0 | 0.00 | 0.00 | 0.00 | 42 | 1011.0 |
| 20260906053804 | 71 | 94 | 0.0 | 1.0 | 0.00 | 0.00 | 0.00 | 41 | 1011.1 |
| 20260906053604 | 71 | 94 | 0.0 | 1.0 | 0.00 | 0.00 | 0.00 | 41 | 1011.1 |
| 20260906053404 | 71 | 94 | 0.0 | 1.0 | 0.00 | 0.00 | 0.00 | 41 | 1011.0 |
| 20260906053225 | 71 | 98 | 0.0 | 1.0 | 0.00 | 0.00 | 0.00 | 41 | 1011.0 |
| 20260906053025 | 71 | 0 | 0.0 | 0.0 | 0.00 | 0.00 | 0.00 | 41 | 1011.1 |
| 20260906052804 | 71 | 89 | 0.0 | 1.0 | 0.00 | 0.00 | 0.00 | 40 | 1011.1 |
| 20260906052604 | 71 | 89 | 0.0 | 2.0 | 0.00 | 0.00 | 0.00 | 40 | 1011.1 |
| 20260906052404 | 71 | 89 | 0.0 | 3.0 | 0.00 | 0.00 | 0.00 | 40 | 1011.1 |
| 20260906052225 | 71 | 89 | 1.0 | 3.0 | 0.00 | 0.00 | 0.00 | 40 | 1011.1 |
| 20260906052004 | 71 | 88 | 1.0 | 3.0 | 0.00 | 0.00 | 0.00 | 40 | 1011.1 |
| 20260906051804 | 71 | 87 | 1.0 | 3.0 | 0.00 | 0.00 | 0.00 | 40 | 1011.1 |
| 20260906051604 | 71 | 86 | 1.0 | 3.0 | 0.00 | 0.00 | 0.00 | 40 | 1011.1 |
| 20260906051405 | 71 | 86 | 1.0 | 3.0 | 0.00 | 0.00 | 0.00 | 40 | 1011.2 |
| 20260906051204 | 71 | 86 | 1.0 | 3.0 | 0.00 | 0.00 | 0.00 | 40 | 1011.1 |
| 20260906051004 | 71 | 85 | 1.0 | 3.0 | 0.00 | 0.00 | 0.00 | 40 | 1011.2 |
| 20260906050804 | 71 | 85 | 1.0 | 3.0 | 0.00 | 0.00 | 0.00 | 40 | 1011.1 |
| 20260906050605 | 72 | 86 | 1.0 | 3.0 | 0.00 | 0.00 | 0.00 | 40 | 1011.1 |
| 20260906050404 | 72 | 86 | 1.0 | 3.0 | 0.00 | 0.00 | 0.00 | 40 | 1011.2 |
| 20260906050205 | 72 | 85 | 1.0 | 3.0 | 0.00 | 0.00 | 0.00 | 40 | 1011.2 |
| 20260906050004 | 72 | 86 | 1.0 | 3.0 | 0.00 | 0.00 | 0.00 | 40 | 1011.2 |
| 20260906045804 | 71 | 89 | 0.0 | 2.0 | 0.00 | 0.00 | 0.00 | 40 | 1011.2 |
| 20260906045625 | 71 | 88 | 0.0 | 2.0 | 0.00 | 0.00 | 0.00 | 40 | 1011.3 |
| 20260906045404 | 72 | 90 | 1.0 | 3.0 | 0.00 | 0.00 | 0.00 | 40 | 1011.3 |
| 20260906045204 | 72 | 90 | 1.0 | 3.0 | 0.00 | 0.00 | 0.00 | 40 | 1011.3 |
| 20260906045025 | 72 | 89 | 1.0 | 3.0 | 0.00 | 0.00 | 0.00 | 40 | 1011.4 |
| 20260906044804 | 72 | 91 | 1.0 | 3.0 | 0.00 | 0.00 | 0.00 | 40 | 1011.3 |
| 20260906044604 | 72 | 93 | 1.0 | 4.0 | 0.00 | 0.00 | 0.00 | 40 | 1011.3 |
| 20260906044425 | 72 | 94 | 1.0 | 4.0 | 0.00 | 0.00 | 0.00 | 40 | 1011.4 |
| 20260906044204 | 72 | 95 | 2.0 | 4.0 | 0.00 | 0.00 | 0.00 | 40 | 1011.4 |
| 20260906044004 | 72 | 95 | 1.0 | 4.0 | 0.00 | 0.00 | 0.00 | 40 | 1011.5 |
| 20260906043804 | 72 | 94 | 1.0 | 4.0 | 0.00 | 0.00 | 0.00 | 40 | 1011.5 |
| 20260906043604 | 72 | 93 | 1.0 | 4.0 | 0.00 | 0.00 | 0.00 | 40 | 1011.5 |
| 20260906043404 | 72 | 92 | 1.0 | 3.0 | 0.00 | 0.00 | 0.00 | 40 | 1011.5 |
| 20260906043204 | 72 | 88 | 1.0 | 3.0 | 0.00 | 0.00 | 0.00 | 40 | 1011.5 |
| 20260906043004 | 72 | 86 | 1.0 | 3.0 | 0.00 | 0.00 | 0.00 | 39 | 1011.5 |
| 20260906042825 | 72 | 86 | 1.0 | 3.0 | 0.00 | 0.00 | 0.00 | 39 | 1011.5 |
| 20260906042604 | 72 | 86 | 1.0 | 3.0 | 0.00 | 0.00 | 0.00 | 39 | 1011.5 |
| 20260906042404 | 72 | 86 | 1.0 | 3.0 | 0.00 | 0.00 | 0.00 | 39 | 1011.5 |
| 20260906042204 | 72 | 87 | 1.0 | 3.0 | 0.00 | 0.00 | 0.00 | 39 | 1011.5 |
| 20260906042004 | 72 | 93 | 0.0 | 3.0 | 0.00 | 0.00 | 0.00 | 39 | 1011.4 |
| 20260906041804 | 72 | 90 | 0.0 | 3.0 | 0.00 | 0.00 | 0.00 | 39 | 1011.4 |
| 20260906041604 | 72 | 86 | 0.0 | 1.0 | 0.00 | 0.00 | 0.00 | 39 | 1011.4 |
| 20260906041404 | 72 | 86 | 0.0 | 1.0 | 0.00 | 0.00 | 0.00 | 39 | 1011.4 |
| 20260906041225 | 72 | 80 | 0.0 | 2.0 | 0.00 | 0.00 | 0.00 | 39 | 1011.3 |
| 20260906041004 | 72 | 80 | 0.0 | 2.0 | 0.00 | 0.00 | 0.00 | 39 | 1011.3 |
| 20260906040804 | 72 | 80 | 0.0 | 2.0 | 0.00 | 0.00 | 0.00 | 39 | 1011.3 |
| 20260906040625 | 73 | 80 | 0.0 | 2.0 | 0.00 | 0.00 | 0.00 | 39 | 1011.3 |
| 20260906040405 | 73 | 80 | 0.0 | 2.0 | 0.00 | 0.00 | 0.00 | 39 | 1011.3 |
| 20260906040205 | 73 | 96 | 0.0 | 2.0 | 0.00 | 0.00 | 0.00 | 39 | 1011.3 |
| 20260906040004 | 73 | 96 | 0.0 | 2.0 | 0.00 | 0.00 | 0.00 | 39 | 1011.3 |
| 20260906035804 | 73 | 96 | 0.0 | 2.0 | 0.00 | 0.00 | 0.00 | 39 | 1011.3 |
| 20260906035604 | 73 | 91 | 0.0 | 2.0 | 0.00 | 0.00 | 0.00 | 39 | 1011.3 |
| 20260906035404 | 73 | 91 | 0.0 | 2.0 | 0.00 | 0.00 | 0.00 | 39 | 1011.3 |
| 20260906035204 | 73 | 89 | 0.0 | 2.0 | 0.00 | 0.00 | 0.00 | 39 | 1011.3 |
| 20260906035025 | 73 | 89 | 0.0 | 2.0 | 0.00 | 0.00 | 0.00 | 39 | 1011.3 |
| 20260906034825 | 73 | 89 | 0.0 | 2.0 | 0.00 | 0.00 | 0.00 | 39 | 1011.3 |
| 20260906034604 | 73 | 95 | 0.0 | 1.0 | 0.00 | 0.00 | 0.00 | 39 | 1011.3 |
| 20260906034404 | 73 | 94 | 0.0 | 1.0 | 0.00 | 0.00 | 0.00 | 39 | 1011.3 |
| 20260906034204 | 73 | 93 | 0.0 | 1.0 | 0.00 | 0.00 | 0.00 | 39 | 1011.2 |
| 20260906034004 | 73 | 92 | 0.0 | 1.0 | 0.00 | 0.00 | 0.00 | 39 | 1011.2 |
| 20260906033804 | 73 | 90 | 0.0 | 1.0 | 0.00 | 0.00 | 0.00 | 39 | 1011.2 |
| 20260906033604 | 73 | 89 | 0.0 | 2.0 | 0.00 | 0.00 | 0.00 | 39 | 1011.2 |
| 20260906033404 | 73 | 89 | 0.0 | 2.0 | 0.00 | 0.00 | 0.00 | 39 | 1011.2 |
| 20260906033204 | 73 | 89 | 0.0 | 2.0 | 0.00 | 0.00 | 0.00 | 39 | 1011.2 |
| 20260906033004 | 73 | 89 | 0.0 | 2.0 | 0.00 | 0.00 | 0.00 | 39 | 1011.2 |
| 20260906032804 | 73 | 91 | 0.0 | 2.0 | 0.00 | 0.00 | 0.00 | 39 | 1011.2 |
| 20260906032604 | 73 | 96 | 0.0 | 2.0 | 0.00 | 0.00 | 0.00 | 39 | 1011.2 |
| 20260906032425 | 73 | 97 | 0.0 | 2.0 | 0.00 | 0.00 | 0.00 | 39 | 1011.2 |
| 20260906032204 | 73 | 98 | 0.0 | 2.0 | 0.00 | 0.00 | 0.00 | 39 | 1011.2 |
| 20260906032004 | 73 | 98 | 0.0 | 2.0 | 0.00 | 0.00 | 0.00 | 39 | 1011.2 |
| 20260906031805 | 73 | 97 | 0.0 | 2.0 | 0.00 | 0.00 | 0.00 | 39 | 1011.2 |
| 20260906031604 | 73 | 0 | 0.0 | 0.0 | 0.00 | 0.00 | 0.00 | 39 | 1011.2 |
| 20260906031404 | 73 | 97 | 0.0 | 3.0 | 0.00 | 0.00 | 0.00 | 39 | 1011.2 |
| 20260906031204 | 74 | 98 | 1.0 | 3.0 | 0.00 | 0.00 | 0.00 | 38 | 1011.1 |
| 20260906031025 | 74 | 99 | 1.0 | 3.0 | 0.00 | 0.00 | 0.00 | 38 | 1011.1 |
| 20260906030804 | 74 | 98 | 1.0 | 3.0 | 0.00 | 0.00 | 0.00 | 38 | 1011.1 |
| 20260906030605 | 74 | 98 | 1.0 | 3.0 | 0.00 | 0.00 | 0.00 | 38 | 1011.0 |
| 20260906030404 | 74 | 97 | 1.0 | 3.0 | 0.00 | 0.00 | 0.00 | 38 | 1011.1 |
| 20260906030204 | 74 | 95 | 1.0 | 3.0 | 0.00 | 0.00 | 0.00 | 38 | 1011.1 |
| 20260906030025 | 74 | 95 | 1.0 | 3.0 | 0.00 | 0.00 | 0.00 | 38 | 1011.1 |
| 20260906025804 | 74 | 95 | 1.0 | 2.0 | 0.00 | 0.00 | 0.00 | 38 | 1011.0 |
| 20260906025604 | 74 | 93 | 1.0 | 2.0 | 0.00 | 0.00 | 0.00 | 38 | 1011.0 |
| 20260906025404 | 74 | 94 | 0.0 | 2.0 | 0.00 | 0.00 | 0.00 | 38 | 1011.0 |
| 20260906025204 | 74 | 99 | 0.0 | 2.0 | 0.00 | 0.00 | 0.00 | 38 | 1011.0 |
| 20260906025004 | 74 | 92 | 0.0 | 1.0 | 0.00 | 0.00 | 0.00 | 38 | 1010.9 |
| 20260906024804 | 74 | 92 | 0.0 | 1.0 | 0.00 | 0.00 | 0.00 | 37 | 1011.0 |
| 20260906024604 | 74 | 0 | 0.0 | 0.0 | 0.00 | 0.00 | 0.00 | 37 | 1010.9 |
| 20260906024404 | 75 | 0 | 0.0 | 0.0 | 0.00 | 0.00 | 0.00 | 37 | 1010.9 |
| 20260906024204 | 75 | 0 | 0.0 | 0.0 | 0.00 | 0.00 | 0.00 | 37 | 1011.0 |
| 20260906024004 | 75 | 0 | 0.0 | 0.0 | 0.00 | 0.00 | 0.00 | 37 | 1010.9 |
| 20260906023804 | 75 | 0 | 0.0 | 0.0 | 0.00 | 0.00 | 0.00 | 37 | 1010.9 |
| 20260906023604 | 75 | 0 | 0.0 | 0.0 | 0.00 | 0.00 | 0.00 | 37 | 1010.9 |
| 20260906023404 | 75 | 0 | 0.0 | 0.0 | 0.00 | 0.00 | 0.00 | 37 | 1010.9 |
| 20260906023204 | 75 | 0 | 0.0 | 0.0 | 0.00 | 0.00 | 0.00 | 37 | 1010.9 |
| 20260906023004 | 76 | 0 | 0.0 | 0.0 | 0.00 | 0.00 | 0.00 | 36 | 1011.0 |
| 20260906022804 | 76 | 5 | 0.0 | 1.0 | 0.00 | 0.00 | 0.00 | 36 | 1010.9 |
| 20260906022604 | 76 | 5 | 0.0 | 1.0 | 0.00 | 0.00 | 0.00 | 36 | 1010.9 |
| 20260906022404 | 76 | 5 | 0.0 | 1.0 | 0.00 | 0.00 | 0.00 | 36 | 1010.9 |
| 20260906022204 | 76 | 5 | 0.0 | 1.0 | 0.00 | 0.00 | 0.00 | 36 | 1010.8 |
| 20260906022005 | 77 | 5 | 0.0 | 1.0 | 0.00 | 0.00 | 0.00 | 36 | 1010.8 |
| 20260906021804 | 77 | 33 | 0.0 | 1.0 | 0.00 | 0.00 | 0.00 | 36 | 1010.8 |
| 20260906021604 | 77 | 345 | 0.0 | 2.0 | 0.00 | 0.00 | 0.00 | 36 | 1010.8 |
| 20260906021404 | 77 | 342 | 0.0 | 2.0 | 0.00 | 0.00 | 0.00 | 35 | 1010.8 |
| 20260906021204 | 77 | 342 | 0.0 | 2.0 | 0.00 | 0.00 | 0.00 | 35 | 1010.8 |
| 20260906021004 | 77 | 342 | 0.0 | 2.0 | 0.00 | 0.00 | 0.00 | 35 | 1010.7 |
| 20260906020825 | 78 | 311 | 0.0 | 2.0 | 0.00 | 0.00 | 0.00 | 35 | 1010.7 |
| 20260906020604 | 78 | 295 | 0.0 | 2.0 | 0.00 | 0.00 | 0.00 | 35 | 1010.7 |
| 20260906020404 | 78 | 295 | 0.0 | 2.0 | 0.00 | 0.00 | 0.00 | 35 | 1010.7 |
| 20260906020225 | 78 | 288 | 0.0 | 2.0 | 0.00 | 0.00 | 0.00 | 35 | 1010.7 |
| 20260906020004 | 78 | 292 | 0.0 | 3.0 | 0.00 | 0.00 | 0.00 | 34 | 1010.7 |
| 20260906015804 | 78 | 291 | 0.0 | 3.0 | 0.00 | 0.00 | 0.00 | 34 | 1010.7 |
| 20260906015604 | 78 | 297 | 0.0 | 3.0 | 0.00 | 0.00 | 0.00 | 34 | 1010.7 |
| 20260906015425 | 78 | 297 | 0.0 | 3.0 | 0.00 | 0.00 | 0.00 | 34 | 1010.6 |
| 20260906015225 | 78 | 311 | 0.0 | 3.0 | 0.00 | 0.00 | 0.00 | 34 | 1010.6 |
| 20260906015004 | 79 | 309 | 0.0 | 2.0 | 0.00 | 0.00 | 0.00 | 34 | 1010.6 |
| 20260906014804 | 79 | 307 | 0.0 | 3.0 | 0.00 | 0.00 | 0.00 | 34 | 1010.6 |
| 20260906014604 | 79 | 306 | 0.0 | 3.0 | 0.00 | 0.00 | 0.00 | 34 | 1010.6 |
| 20260906014405 | 79 | 313 | 1.0 | 5.0 | 0.00 | 0.00 | 0.00 | 33 | 1010.6 |
| 20260906014225 | 79 | 311 | 1.0 | 5.0 | 0.00 | 0.00 | 0.00 | 34 | 1010.5 |
| 20260906014004 | 79 | 309 | 1.0 | 5.0 | 0.00 | 0.00 | 0.00 | 33 | 1010.5 |
| 20260906013604 | 80 | 318 | 1.0 | 5.0 | 0.00 | 0.00 | 0.00 | 33 | 1010.5 |
| 20260906013404 | 80 | 317 | 1.0 | 4.0 | 0.00 | 0.00 | 0.00 | 33 | 1010.5 |
| 20260906013204 | 80 | 317 | 1.0 | 4.0 | 0.00 | 0.00 | 0.00 | 33 | 1010.6 |
| 20260906013004 | 80 | 313 | 1.0 | 4.0 | 0.00 | 0.00 | 0.00 | 33 | 1010.6 |
| 20260906012825 | 80 | 296 | 1.0 | 4.0 | 0.00 | 0.00 | 0.00 | 33 | 1010.6 |
| 20260906012604 | 80 | 298 | 1.0 | 5.0 | 0.00 | 0.00 | 0.00 | 32 | 1010.6 |
| 20260906012404 | 80 | 296 | 1.0 | 6.0 | 0.00 | 0.00 | 0.00 | 32 | 1010.6 |
| 20260906012204 | 80 | 295 | 2.0 | 6.0 | 0.00 | 0.00 | 0.00 | 32 | 1010.6 |
| 20260906012004 | 80 | 296 | 2.0 | 6.0 | 0.00 | 0.00 | 0.00 | 32 | 1010.7 |
| 20260906011804 | 80 | 295 | 3.0 | 6.0 | 0.00 | 0.00 | 0.00 | 31 | 1010.7 |
| 20260906011605 | 80 | 293 | 2.0 | 6.0 | 0.00 | 0.00 | 0.00 | 31 | 1010.7 |
| 20260906011404 | 81 | 292 | 2.0 | 6.0 | 0.00 | 0.00 | 0.00 | 31 | 1010.7 |
| 20260906011204 | 81 | 291 | 2.0 | 5.0 | 0.00 | 0.00 | 0.00 | 31 | 1010.7 |
| 20260906011004 | 81 | 293 | 2.0 | 6.0 | 0.00 | 0.00 | 0.00 | 31 | 1010.7 |
| 20260906010804 | 81 | 293 | 2.0 | 6.0 | 0.00 | 0.00 | 0.00 | 31 | 1010.7 |
| 20260906010604 | 81 | 291 | 2.0 | 7.0 | 0.00 | 0.00 | 0.00 | 31 | 1010.7 |
| 20260906010404 | 81 | 291 | 3.0 | 7.0 | 0.00 | 0.00 | 0.00 | 30 | 1010.7 |
| 20260906010204 | 81 | 291 | 3.0 | 7.0 | 0.00 | 0.00 | 0.00 | 30 | 1010.7 |
| 20260906010025 | 81 | 289 | 3.0 | 7.0 | 0.00 | 0.00 | 0.00 | 30 | 1010.7 |
| 20260906005804 | 81 | 288 | 3.0 | 7.0 | 0.00 | 0.00 | 0.00 | 30 | 1010.7 |
| 20260906005604 | 81 | 290 | 3.0 | 7.0 | 0.00 | 0.00 | 0.00 | 30 | 1010.7 |
| 20260906005404 | 82 | 292 | 2.0 | 6.0 | 0.00 | 0.00 | 0.00 | 30 | 1010.7 |
| 20260906005204 | 82 | 293 | 2.0 | 6.0 | 0.00 | 0.00 | 0.00 | 29 | 1010.7 |
| 20260906005004 | 82 | 297 | 2.0 | 6.0 | 0.00 | 0.00 | 0.00 | 29 | 1010.6 |
| 20260906004804 | 82 | 297 | 2.0 | 4.0 | 0.00 | 0.00 | 0.00 | 29 | 1010.6 |
| 20260906004604 | 82 | 296 | 2.0 | 4.0 | 0.00 | 0.00 | 0.00 | 29 | 1010.6 |
| 20260906004404 | 82 | 296 | 2.0 | 4.0 | 0.00 | 0.00 | 0.00 | 28 | 1010.7 |
| 20260906004204 | 82 | 295 | 2.0 | 4.0 | 0.00 | 0.00 | 0.00 | 28 | 1010.6 |
| 20260906004004 | 82 | 294 | 2.0 | 5.0 | 0.00 | 0.00 | 0.00 | 28 | 1010.6 |
| 20260906003804 | 82 | 293 | 2.0 | 5.0 | 0.00 | 0.00 | 0.00 | 28 | 1010.6 |
| 20260906003604 | 82 | 295 | 2.0 | 5.0 | 0.00 | 0.00 | 0.00 | 29 | 1010.6 |
| 20260906003404 | 82 | 296 | 2.0 | 5.0 | 0.00 | 0.00 | 0.00 | 29 | 1010.6 |
| 20260906003204 | 82 | 298 | 2.0 | 5.0 | 0.00 | 0.00 | 0.00 | 28 | 1010.6 |
| 20260906003004 | 82 | 300 | 1.0 | 4.0 | 0.00 | 0.00 | 0.00 | 28 | 1010.5 |
| 20260906002804 | 82 | 306 | 1.0 | 4.0 | 0.00 | 0.00 | 0.00 | 28 | 1010.5 |
| 20260906002604 | 82 | 326 | 1.0 | 5.0 | 0.00 | 0.00 | 0.00 | 28 | 1010.4 |
| 20260906002404 | 82 | 325 | 1.0 | 5.0 | 0.00 | 0.00 | 0.00 | 28 | 1010.4 |
| 20260906002225 | 82 | 327 | 1.0 | 5.0 | 0.00 | 0.00 | 0.00 | 28 | 1010.4 |
| 20260906002004 | 82 | 317 | 1.0 | 5.0 | 0.00 | 0.00 | 0.00 | 28 | 1010.4 |
| 20260906001825 | 82 | 314 | 2.0 | 5.0 | 0.00 | 0.00 | 0.00 | 28 | 1010.4 |
| 20260906001625 | 82 | 307 | 2.0 | 5.0 | 0.00 | 0.00 | 0.00 | 28 | 1010.4 |
| 20260906001404 | 82 | 301 | 2.0 | 5.0 | 0.00 | 0.00 | 0.00 | 28 | 1010.4 |
| 20260906001204 | 82 | 295 | 2.0 | 5.0 | 0.00 | 0.00 | 0.00 | 28 | 1010.4 |
| 20260906001004 | 82 | 295 | 1.0 | 4.0 | 0.00 | 0.00 | 0.00 | 27 | 1010.4 |
| 20260906000804 | 82 | 292 | 1.0 | 4.0 | 0.00 | 0.00 | 0.00 | 27 | 1010.4 |
| 20260906000604 | 82 | 290 | 1.0 | 4.0 | 0.00 | 0.00 | 0.00 | 27 | 1010.3 |
| 20260906000426 | 82 | 290 | 1.0 | 4.0 | 0.00 | 0.00 | 0.00 | 27 | 1010.4 |
| 20260906000205 | 82 | 291 | 0.0 | 4.0 | 0.00 | 0.00 | 0.00 | 28 | 1010.4 |
| 20260906000004 | 82 | 292 | 0.0 | 4.0 | 0.00 | 0.00 | 0.00 | 27 | 1010.4 |
| 20260905235804 | 82 | 298 | 1.0 | 4.0 | 0.00 | 0.00 | 0.00 | 27 | 1010.4 |
| 20260905235604 | 82 | 298 | 1.0 | 4.0 | 0.00 | 0.00 | 0.00 | 27 | 1010.5 |
| 20260905235404 | 82 | 304 | 1.0 | 4.0 | 0.00 | 0.00 | 0.00 | 28 | 1010.5 |
| 20260905235204 | 82 | 314 | 1.0 | 5.0 | 0.00 | 0.00 | 0.00 | 27 | 1010.5 |
| 20260905235004 | 82 | 326 | 1.0 | 5.0 | 0.00 | 0.00 | 0.00 | 28 | 1010.4 |
| 20260905234825 | 82 | 335 | 1.0 | 6.0 | 0.00 | 0.00 | 0.00 | 27 | 1010.4 |
| 20260905234604 | 82 | 325 | 2.0 | 8.0 | 0.00 | 0.00 | 0.00 | 27 | 1010.4 |
| 20260905234404 | 82 | 323 | 2.0 | 8.0 | 0.00 | 0.00 | 0.00 | 27 | 1010.4 |
| 20260905234204 | 82 | 306 | 2.0 | 8.0 | 0.00 | 0.00 | 0.00 | 27 | 1010.5 |
| 20260905234004 | 83 | 301 | 3.0 | 8.0 | 0.00 | 0.00 | 0.00 | 26 | 1010.5 |
| 20260905233825 | 83 | 298 | 3.0 | 8.0 | 0.00 | 0.00 | 0.00 | 27 | 1010.4 |
| 20260905233604 | 83 | 296 | 2.0 | 7.0 | 0.00 | 0.00 | 0.00 | 27 | 1010.4 |
| 20260905233404 | 83 | 292 | 2.0 | 7.0 | 0.00 | 0.00 | 0.00 | 26 | 1010.4 |
| 20260905233204 | 83 | 313 | 1.0 | 6.0 | 0.00 | 0.00 | 0.00 | 28 | 1010.4 |
| 20260905233004 | 83 | 122 | 1.0 | 5.0 | 0.00 | 0.00 | 0.00 | 29 | 1010.3 |
| 20260905232804 | 83 | 124 | 1.0 | 5.0 | 0.00 | 0.00 | 0.00 | 28 | 1010.3 |
| 20260905232604 | 84 | 132 | 1.0 | 5.0 | 0.00 | 0.00 | 0.00 | 28 | 1010.3 |
| 20260905232404 | 84 | 147 | 1.0 | 5.0 | 0.00 | 0.00 | 0.00 | 28 | 1010.3 |
| 20260905232225 | 84 | 183 | 1.0 | 6.0 | 0.00 | 0.00 | 0.00 | 28 | 1010.4 |
| 20260905232004 | 84 | 256 | 1.0 | 6.0 | 0.00 | 0.00 | 0.00 | 29 | 1010.4 |
| 20260905231804 | 84 | 260 | 1.0 | 6.0 | 0.00 | 0.00 | 0.00 | 28 | 1010.4 |
| 20260905231604 | 84 | 308 | 1.0 | 6.0 | 0.00 | 0.00 | 0.00 | 28 | 1010.5 |
| 20260905231425 | 84 | 301 | 1.0 | 6.0 | 0.00 | 0.00 | 0.00 | 28 | 1010.5 |
| 20260905231225 | 84 | 310 | 1.0 | 5.0 | 0.00 | 0.00 | 0.00 | 29 | 1010.5 |
| 20260905231004 | 84 | 308 | 2.0 | 8.0 | 0.00 | 0.00 | 0.00 | 29 | 1010.5 |
| 20260905230804 | 84 | 307 | 2.0 | 8.0 | 0.00 | 0.00 | 0.00 | 29 | 1010.5 |
| 20260905230625 | 84 | 304 | 2.0 | 8.0 | 0.00 | 0.00 | 0.00 | 29 | 1010.5 |
| 20260905230405 | 84 | 310 | 2.0 | 8.0 | 0.00 | 0.00 | 0.00 | 29 | 1010.5 |
| 20260905230204 | 84 | 303 | 2.0 | 8.0 | 0.00 | 0.00 | 0.00 | 29 | 1010.5 |
| 20260905230004 | 84 | 310 | 2.0 | 6.0 | 0.00 | 0.00 | 0.00 | 29 | 1010.5 |
| 20260905225804 | 84 | 313 | 2.0 | 6.0 | 0.00 | 0.00 | 0.00 | 29 | 1010.5 |
| 20260905225604 | 84 | 302 | 2.0 | 6.0 | 0.00 | 0.00 | 0.00 | 29 | 1010.6 |
| 20260905225404 | 84 | 288 | 2.0 | 9.0 | 0.00 | 0.00 | 0.00 | 28 | 1010.6 |
| 20260905225204 | 84 | 295 | 2.0 | 9.0 | 0.00 | 0.00 | 0.00 | 29 | 1010.6 |
| 20260905225025 | 84 | 280 | 2.0 | 9.0 | 0.00 | 0.00 | 0.00 | 28 | 1010.6 |
| 20260905224804 | 84 | 266 | 2.0 | 9.0 | 0.00 | 0.00 | 0.00 | 28 | 1010.6 |
| 20260905224604 | 84 | 111 | 2.0 | 9.0 | 0.00 | 0.00 | 0.00 | 28 | 1010.6 |
| 20260905224404 | 84 | 120 | 2.0 | 7.0 | 0.00 | 0.00 | 0.00 | 27 | 1010.7 |
| 20260905224204 | 84 | 118 | 3.0 | 8.0 | 0.00 | 0.00 | 0.00 | 26 | 1010.6 |
| 20260905224004 | 84 | 119 | 2.0 | 8.0 | 0.00 | 0.00 | 0.00 | 26 | 1010.7 |